
Distance (Route):
Temperature : 0°C
Humidity : 0%
Pressure : 0hPa| Receiver | Frames | First received | Last received |
|---|---|---|---|
| 9A1FER-3 | 267 | 2026-09-01 23:52:17 | 2026-09-02 01:11:58 |
| 9A1FER-10 | 245 | 2026-09-01 23:52:56 | 2026-09-02 01:11:38 |
| PETON7-10 | 77 | 2026-09-02 00:25:45 | 2026-09-02 00:50:29 |
| OM5KV | 42 | 2026-09-02 00:29:33 | 2026-09-02 00:33:02 |
| OE3JTB-15 | 10 | 2026-09-01 23:53:27 | 2026-09-02 00:45:45 |
| Receiver | Date | Latitude | Longitude | Direction | Speed | Altitude | Climb | Temperature | Humidity | Pressure | Voltage | Killtimer | Uptime | BKT | XDATA |
|---|---|---|---|---|---|---|---|---|---|---|---|---|---|---|---|
| 9A1FER-3 | 2026-09-02 01:11:58 | 46.15480 | 15.69899 | 358° | 5km/h | 2597m | -7.7m/s | 0°C | 0% | 0hPa | 0V | 00:00:00 | 00:00:00 | 00:00:00 | |
| 9A1FER-3 | 2026-09-02 01:11:47 | 46.15460 | 15.69896 | 10° | 11km/h | 2704m | -11.3m/s | 0°C | 0% | 0hPa | 0V | 00:00:00 | 00:00:00 | 00:00:00 | |
| 9A1FER-10 | 2026-09-02 01:11:38 | 46.15437 | 15.69882 | 37° | 11km/h | 2791m | -10.2m/s | 0°C | 0% | 0hPa | 0V | 00:00:00 | 00:00:00 | 00:00:00 | |
| 9A1FER-3 | 2026-09-02 01:11:37 | 46.15435 | 15.69880 | 34° | 16km/h | 2801m | -9.3m/s | 0°C | 0% | 0hPa | 0V | 00:00:00 | 00:00:00 | 00:00:00 | |
| 9A1FER-10 | 2026-09-02 01:11:28 | 46.15412 | 15.69858 | 27° | 15km/h | 2885m | -7.5m/s | 0°C | 0% | 0hPa | 0V | 00:00:00 | 00:00:00 | 00:00:00 | |
| 9A1FER-10 | 2026-09-02 01:11:01 | 46.15334 | 15.69776 | 61° | 22km/h | 3127m | -10.6m/s | 0°C | 0% | 0hPa | 0V | 00:00:00 | 00:00:00 | 00:00:00 | |
| 9A1FER-3 | 2026-09-02 01:10:59 | 46.15328 | 15.69762 | 63° | 22km/h | 3146m | -9.0m/s | 0°C | 0% | 0hPa | 0V | 00:00:00 | 00:00:00 | 00:00:00 | |
| 9A1FER-10 | 2026-09-02 01:10:46 | 46.15296 | 15.69668 | 69° | 27km/h | 3278m | -8.9m/s | 0°C | 0% | 0hPa | 0V | 00:00:00 | 00:00:00 | 00:00:00 | |
| 9A1FER-3 | 2026-09-02 01:10:44 | 46.15290 | 15.69650 | 70° | 27km/h | 3295m | -10.3m/s | 0°C | 0% | 0hPa | 0V | 00:00:00 | 00:00:00 | 00:00:00 | |
| 9A1FER-10 | 2026-09-02 01:10:30 | 46.15248 | 15.69520 | 60° | 27km/h | 3433m | -10.9m/s | 0°C | 0% | 0hPa | 0V | 00:00:00 | 00:00:00 | 00:00:00 | |
| 9A1FER-3 | 2026-09-02 01:10:29 | 46.15245 | 15.69511 | 60° | 27km/h | 3443m | -9.3m/s | 0°C | 0% | 0hPa | 0V | 00:00:00 | 00:00:00 | 00:00:00 | |
| 9A1FER-10 | 2026-09-02 01:10:15 | 46.15198 | 15.69388 | 54° | 27km/h | 3582m | -9.9m/s | 0°C | 0% | 0hPa | 0V | 00:00:00 | 00:00:00 | 00:00:00 | |
| 9A1FER-3 | 2026-09-02 01:10:14 | 46.15194 | 15.69381 | 52° | 26km/h | 3592m | -9.4m/s | 0°C | 0% | 0hPa | 0V | 00:00:00 | 00:00:00 | 00:00:00 | |
| 9A1FER-10 | 2026-09-02 01:10:00 | 46.15132 | 15.69273 | 44° | 27km/h | 3730m | -10.8m/s | 0°C | 0% | 0hPa | 0V | 00:00:00 | 00:00:00 | 00:00:00 | |
| 9A1FER-3 | 2026-09-02 01:09:56 | 46.15112 | 15.69246 | 49° | 26km/h | 3774m | -9.6m/s | 0°C | 0% | 0hPa | 0V | 00:00:00 | 00:00:00 | 00:00:00 | |
| 9A1FER-10 | 2026-09-02 01:09:45 | 46.15064 | 15.69170 | 47° | 22km/h | 3879m | -9.7m/s | 0°C | 0% | 0hPa | 0V | 00:00:00 | 00:00:00 | 00:00:00 | |
| 9A1FER-3 | 2026-09-02 01:09:41 | 46.15047 | 15.69143 | 48° | 20km/h | 3921m | -9.0m/s | 0°C | 0% | 0hPa | 0V | 00:00:00 | 00:00:00 | 00:00:00 | |
| 9A1FER-10 | 2026-09-02 01:09:30 | 46.15013 | 15.69073 | 49° | 22km/h | 4029m | -8.8m/s | 0°C | 0% | 0hPa | 0V | 00:00:00 | 00:00:00 | 00:00:00 | |
| 9A1FER-3 | 2026-09-02 01:09:26 | 46.15003 | 15.69049 | 57° | 24km/h | 4072m | -9.8m/s | 0°C | 0% | 0hPa | 0V | 00:00:00 | 00:00:00 | 00:00:00 | |
| 9A1FER-10 | 2026-09-02 01:09:15 | 46.14973 | 15.68964 | 64° | 27km/h | 4184m | -10.8m/s | 0°C | 0% | 0hPa | 0V | 00:00:00 | 00:00:00 | 00:00:00 | |
| 9A1FER-3 | 2026-09-02 01:09:11 | 46.14962 | 15.68926 | 63° | 27km/h | 4225m | -9.9m/s | 0°C | 0% | 0hPa | 0V | 00:00:00 | 00:00:00 | 00:00:00 | |
| 9A1FER-3 | 2026-09-02 01:08:55 | 46.14920 | 15.68772 | 70° | 27km/h | 4393m | -10.0m/s | 0°C | 0% | 0hPa | 0V | 00:00:00 | 00:00:00 | 00:00:00 | |
| 9A1FER-10 | 2026-09-02 01:08:50 | 46.14910 | 15.68725 | 70° | 27km/h | 4446m | -11.1m/s | 0°C | 0% | 0hPa | 0V | 00:00:00 | 00:00:00 | 00:00:00 | |
| 9A1FER-3 | 2026-09-02 01:08:40 | 46.14890 | 15.68628 | 78° | 31km/h | 4554m | -10.9m/s | 0°C | 0% | 0hPa | 0V | 00:00:00 | 00:00:00 | 00:00:00 | |
| 9A1FER-10 | 2026-09-02 01:08:35 | 46.14879 | 15.68577 | 71° | 35km/h | 4606m | -9.9m/s | 0°C | 0% | 0hPa | 0V | 00:00:00 | 00:00:00 | 00:00:00 | |
| 9A1FER-3 | 2026-09-02 01:08:25 | 46.14856 | 15.68462 | 73° | 38km/h | 4710m | -11.7m/s | 0°C | 0% | 0hPa | 0V | 00:00:00 | 00:00:00 | 00:00:00 | |
| 9A1FER-10 | 2026-09-02 01:08:19 | 46.14839 | 15.68386 | 69° | 38km/h | 4778m | -11.6m/s | 0°C | 0% | 0hPa | 0V | 00:00:00 | 00:00:00 | 00:00:00 | |
| 9A1FER-3 | 2026-09-02 01:08:10 | 46.14812 | 15.68267 | 69° | 40km/h | 4879m | -9.7m/s | 0°C | 0% | 0hPa | 0V | 00:00:00 | 00:00:00 | 00:00:00 | |
| 9A1FER-10 | 2026-09-02 01:08:04 | 46.14795 | 15.68187 | 76° | 42km/h | 4940m | -8.8m/s | 0°C | 0% | 0hPa | 0V | 00:00:00 | 00:00:00 | 00:00:00 | |
| 9A1FER-3 | 2026-09-02 01:07:54 | 46.14773 | 15.68044 | 79° | 51km/h | 5044m | -10.5m/s | 0°C | 0% | 0hPa | 0V | 00:00:00 | 00:00:00 | 00:00:00 | |
| 9A1FER-10 | 2026-09-02 01:07:48 | 46.14763 | 15.67948 | 85° | 51km/h | 5108m | -7.5m/s | 0°C | 0% | 0hPa | 0V | 00:00:00 | 00:00:00 | 00:00:00 | |
| 9A1FER-3 | 2026-09-02 01:07:35 | 46.14750 | 15.67708 | 86° | 62km/h | 5235m | -8.3m/s | 0°C | 0% | 0hPa | 0V | 00:00:00 | 00:00:00 | 00:00:00 | |
| 9A1FER-10 | 2026-09-02 01:07:33 | 46.14749 | 15.67664 | 91° | 62km/h | 5253m | -9.7m/s | 0°C | 0% | 0hPa | 0V | 00:00:00 | 00:00:00 | 00:00:00 | |
| 9A1FER-3 | 2026-09-02 01:07:20 | 46.14745 | 15.67370 | 88° | 75km/h | 5376m | -8.3m/s | 0°C | 0% | 0hPa | 0V | 00:00:00 | 00:00:00 | 00:00:00 | |
| 9A1FER-3 | 2026-09-02 01:07:04 | 46.14737 | 15.66915 | 89° | 80km/h | 5532m | -8.2m/s | 0°C | 0% | 0hPa | 0V | 00:00:00 | 00:00:00 | 00:00:00 | |
| 9A1FER-10 | 2026-09-02 01:06:48 | 46.14726 | 15.66478 | 88° | 82km/h | 5672m | -9.2m/s | 0°C | 0% | 0hPa | 0V | 00:00:00 | 00:00:00 | 00:00:00 | |
| 9A1FER-10 | 2026-09-02 01:06:33 | 46.14706 | 15.66028 | 86° | 78km/h | 5819m | -10.2m/s | 0°C | 0% | 0hPa | 0V | 00:00:00 | 00:00:00 | 00:00:00 | |
| 9A1FER-3 | 2026-09-02 01:06:18 | 46.14692 | 15.65601 | 86° | 75km/h | 5972m | -11.0m/s | 0°C | 0% | 0hPa | 0V | 00:00:00 | 00:00:00 | 00:00:00 | |
| 9A1FER-10 | 2026-09-02 01:06:17 | 46.14690 | 15.65574 | 86° | 73km/h | 5982m | -9.8m/s | 0°C | 0% | 0hPa | 0V | 00:00:00 | 00:00:00 | 00:00:00 | |
| 9A1FER-3 | 2026-09-02 01:06:03 | 46.14658 | 15.65190 | 84° | 75km/h | 6138m | -11.5m/s | 0°C | 0% | 0hPa | 0V | 00:00:00 | 00:00:00 | 00:00:00 | |
| 9A1FER-10 | 2026-09-02 01:05:59 | 46.14649 | 15.65083 | 81° | 75km/h | 6183m | -11.3m/s | 0°C | 0% | 0hPa | 0V | 00:00:00 | 00:00:00 | 00:00:00 | |
| 9A1FER-3 | 2026-09-02 01:05:48 | 46.14615 | 15.64785 | 85° | 77km/h | 6307m | -11.9m/s | 0°C | 0% | 0hPa | 0V | 00:00:00 | 00:00:00 | 00:00:00 | |
| 9A1FER-10 | 2026-09-02 01:05:44 | 46.14607 | 15.64674 | 84° | 77km/h | 6351m | -10.9m/s | 0°C | 0% | 0hPa | 0V | 00:00:00 | 00:00:00 | 00:00:00 | |
| 9A1FER-3 | 2026-09-02 01:05:33 | 46.14590 | 15.64370 | 87° | 77km/h | 6468m | -11.1m/s | 0°C | 0% | 0hPa | 0V | 00:00:00 | 00:00:00 | 00:00:00 | |
| 9A1FER-10 | 2026-09-02 01:05:29 | 46.14585 | 15.64258 | 87° | 75km/h | 6511m | -10.8m/s | 0°C | 0% | 0hPa | 0V | 00:00:00 | 00:00:00 | 00:00:00 | |
| 9A1FER-3 | 2026-09-02 01:05:18 | 46.14572 | 15.63954 | 89° | 75km/h | 6628m | -9.5m/s | 0°C | 0% | 0hPa | 0V | 00:00:00 | 00:00:00 | 00:00:00 | |
| 9A1FER-10 | 2026-09-02 01:05:14 | 46.14569 | 15.63845 | 88° | 75km/h | 6670m | -10.9m/s | 0°C | 0% | 0hPa | 0V | 00:00:00 | 00:00:00 | 00:00:00 | |
| 9A1FER-3 | 2026-09-02 01:05:03 | 46.14564 | 15.63544 | 90° | 75km/h | 6778m | -8.0m/s | 0°C | 0% | 0hPa | 0V | 00:00:00 | 00:00:00 | 00:00:00 | |
| 9A1FER-10 | 2026-09-02 01:04:59 | 46.14561 | 15.63434 | 90° | 75km/h | 6818m | -9.0m/s | 0°C | 0% | 0hPa | 0V | 00:00:00 | 00:00:00 | 00:00:00 | |
| 9A1FER-3 | 2026-09-02 01:04:48 | 46.14552 | 15.63133 | 86° | 75km/h | 6916m | -8.6m/s | 0°C | 0% | 0hPa | 0V | 00:00:00 | 00:00:00 | 00:00:00 | |
| 9A1FER-10 | 2026-09-02 01:04:44 | 46.14548 | 15.63026 | 87° | 75km/h | 6953m | -8.8m/s | 0°C | 0% | 0hPa | 0V | 00:00:00 | 00:00:00 | 00:00:00 | |
| 9A1FER-3 | 2026-09-02 01:04:34 | 46.14537 | 15.62727 | 87° | 75km/h | 7059m | -9.6m/s | 0°C | 0% | 0hPa | 0V | 00:00:00 | 00:00:00 | 00:00:00 | |
| 9A1FER-10 | 2026-09-02 01:04:29 | 46.14534 | 15.62620 | 86° | 75km/h | 7100m | -9.2m/s | 0°C | 0% | 0hPa | 0V | 00:00:00 | 00:00:00 | 00:00:00 | |
| 9A1FER-3 | 2026-09-02 01:04:18 | 46.14525 | 15.62320 | 87° | 73km/h | 7207m | -6.9m/s | 0°C | 0% | 0hPa | 0V | 00:00:00 | 00:00:00 | 00:00:00 | |
| 9A1FER-10 | 2026-09-02 01:04:14 | 46.14520 | 15.62211 | 88° | 71km/h | 7246m | -10.3m/s | 0°C | 0% | 0hPa | 0V | 00:00:00 | 00:00:00 | 00:00:00 | |
| 9A1FER-3 | 2026-09-02 01:04:03 | 46.14511 | 15.61922 | 89° | 69km/h | 7351m | -8.8m/s | 0°C | 0% | 0hPa | 0V | 00:00:00 | 00:00:00 | 00:00:00 | |
| 9A1FER-10 | 2026-09-02 01:03:59 | 46.14512 | 15.61818 | 93° | 69km/h | 7387m | -8.8m/s | 0°C | 0% | 0hPa | 0V | 00:00:00 | 00:00:00 | 00:00:00 | |
| 9A1FER-3 | 2026-09-02 01:03:48 | 46.14523 | 15.61543 | 96° | 66km/h | 7509m | -12.6m/s | 0°C | 0% | 0hPa | 0V | 00:00:00 | 00:00:00 | 00:00:00 | |
| 9A1FER-10 | 2026-09-02 01:03:44 | 46.14529 | 15.61444 | 98° | 66km/h | 7555m | -10.1m/s | 0°C | 0% | 0hPa | 0V | 00:00:00 | 00:00:00 | 00:00:00 | |
| 9A1FER-3 | 2026-09-02 01:03:33 | 46.14540 | 15.61181 | 96° | 64km/h | 7673m | -10.4m/s | 0°C | 0% | 0hPa | 0V | 00:00:00 | 00:00:00 | 00:00:00 | |
| 9A1FER-10 | 2026-09-02 01:03:29 | 46.14543 | 15.61086 | 92° | 64km/h | 7715m | -11.0m/s | 0°C | 0% | 0hPa | 0V | 00:00:00 | 00:00:00 | 00:00:00 | |
| 9A1FER-3 | 2026-09-02 01:03:18 | 46.14545 | 15.60828 | 90° | 60km/h | 7834m | -11.0m/s | 0°C | 0% | 0hPa | 0V | 00:00:00 | 00:00:00 | 00:00:00 | |
| 9A1FER-10 | 2026-09-02 01:03:14 | 46.14546 | 15.60736 | 94° | 58km/h | 7878m | -11.1m/s | 0°C | 0% | 0hPa | 0V | 00:00:00 | 00:00:00 | 00:00:00 | |
| 9A1FER-3 | 2026-09-02 01:03:03 | 46.14546 | 15.60496 | 89° | 55km/h | 8001m | -11.9m/s | 0°C | 0% | 0hPa | 0V | 00:00:00 | 00:00:00 | 00:00:00 | |
| 9A1FER-10 | 2026-09-02 01:02:59 | 46.14545 | 15.60412 | 91° | 55km/h | 8045m | -10.1m/s | 0°C | 0% | 0hPa | 0V | 00:00:00 | 00:00:00 | 00:00:00 | |
| 9A1FER-3 | 2026-09-02 01:02:48 | 46.14539 | 15.60194 | 90° | 53km/h | 8162m | -10.9m/s | 0°C | 0% | 0hPa | 0V | 00:00:00 | 00:00:00 | 00:00:00 | |
| 9A1FER-10 | 2026-09-02 01:02:44 | 46.14537 | 15.60114 | 86° | 53km/h | 8205m | -11.4m/s | 0°C | 0% | 0hPa | 0V | 00:00:00 | 00:00:00 | 00:00:00 | |
| 9A1FER-3 | 2026-09-02 01:02:33 | 46.14533 | 15.59901 | 93° | 53km/h | 8329m | -9.4m/s | 0°C | 0% | 0hPa | 0V | 00:00:00 | 00:00:00 | 00:00:00 | |
| 9A1FER-3 | 2026-09-02 01:02:18 | 46.14532 | 15.59608 | 84° | 51km/h | 8485m | -9.0m/s | 0°C | 0% | 0hPa | 0V | 00:00:00 | 00:00:00 | 00:00:00 | |
| 9A1FER-10 | 2026-09-02 01:02:13 | 46.14525 | 15.59517 | 84° | 53km/h | 8537m | -9.2m/s | 0°C | 0% | 0hPa | 0V | 00:00:00 | 00:00:00 | 00:00:00 | |
| 9A1FER-3 | 2026-09-02 01:02:03 | 46.14503 | 15.59331 | 76° | 55km/h | 8644m | -10.0m/s | 0°C | 0% | 0hPa | 0V | 00:00:00 | 00:00:00 | 00:00:00 | |
| 9A1FER-10 | 2026-09-02 01:01:58 | 46.14491 | 15.59236 | 76° | 57km/h | 8698m | -9.1m/s | 0°C | 0% | 0hPa | 0V | 00:00:00 | 00:00:00 | 00:00:00 | |
| 9A1FER-3 | 2026-09-02 01:01:47 | 46.14455 | 15.59013 | 79° | 60km/h | 8814m | -9.8m/s | 0°C | 0% | 0hPa | 0V | 00:00:00 | 00:00:00 | 00:00:00 | |
| 9A1FER-10 | 2026-09-02 01:01:43 | 46.14443 | 15.58930 | 76° | 60km/h | 8859m | -11.2m/s | 0°C | 0% | 0hPa | 0V | 00:00:00 | 00:00:00 | 00:00:00 | |
| 9A1FER-10 | 2026-09-02 01:01:28 | 46.14403 | 15.58604 | 85° | 69km/h | 9026m | -10.6m/s | 0°C | 0% | 0hPa | 0V | 00:00:00 | 00:00:00 | 00:00:00 | |
| 9A1FER-3 | 2026-09-02 01:01:16 | 46.14383 | 15.58301 | 83° | 78km/h | 9159m | -10.7m/s | 0°C | 0% | 0hPa | 0V | 00:00:00 | 00:00:00 | 00:00:00 | |
| 9A1FER-10 | 2026-09-02 01:01:13 | 46.14377 | 15.58220 | 83° | 78km/h | 9192m | -9.8m/s | 0°C | 0% | 0hPa | 0V | 00:00:00 | 00:00:00 | 00:00:00 | |
| 9A1FER-3 | 2026-09-02 01:01:00 | 46.14344 | 15.57854 | 85° | 80km/h | 9334m | -9.8m/s | 0°C | 0% | 0hPa | 0V | 00:00:00 | 00:00:00 | 00:00:00 | |
| 9A1FER-10 | 2026-09-02 01:00:58 | 46.14340 | 15.57795 | 85° | 80km/h | 9358m | -11.9m/s | 0°C | 0% | 0hPa | 0V | 00:00:00 | 00:00:00 | 00:00:00 | |
| 9A1FER-3 | 2026-09-02 01:00:45 | 46.14309 | 15.57411 | 86° | 84km/h | 9506m | -10.3m/s | 0°C | 0% | 0hPa | 0V | 00:00:00 | 00:00:00 | 00:00:00 | |
| 9A1FER-10 | 2026-09-02 01:00:43 | 46.14305 | 15.57352 | 88° | 86km/h | 9527m | -10.1m/s | 0°C | 0% | 0hPa | 0V | 00:00:00 | 00:00:00 | 00:00:00 | |
| 9A1FER-3 | 2026-09-02 01:00:30 | 46.14283 | 15.56949 | 85° | 84km/h | 9669m | -11.8m/s | 0°C | 0% | 0hPa | 0V | 00:00:00 | 00:00:00 | 00:00:00 | |
| 9A1FER-10 | 2026-09-02 01:00:28 | 46.14280 | 15.56886 | 88° | 84km/h | 9694m | -10.7m/s | 0°C | 0% | 0hPa | 0V | 00:00:00 | 00:00:00 | 00:00:00 | |
| 9A1FER-10 | 2026-09-02 01:00:13 | 46.14254 | 15.56424 | 83° | 80km/h | 9867m | -11.2m/s | 0°C | 0% | 0hPa | 0V | 00:00:00 | 00:00:00 | 00:00:00 | |
| 9A1FER-3 | 2026-09-02 00:59:58 | 46.14219 | 15.55983 | 80° | 82km/h | 10046m | -10.0m/s | 0°C | 0% | 0hPa | 0V | 00:00:00 | 00:00:00 | 00:00:00 | |
| 9A1FER-10 | 2026-09-02 00:59:57 | 46.14216 | 15.55954 | 82° | 82km/h | 10057m | -9.5m/s | 0°C | 0% | 0hPa | 0V | 00:00:00 | 00:00:00 | 00:00:00 | |
| 9A1FER-3 | 2026-09-02 00:59:43 | 46.14163 | 15.55537 | 78° | 88km/h | 10222m | -12.8m/s | 0°C | 0% | 0hPa | 0V | 00:00:00 | 00:00:00 | 00:00:00 | |
| 9A1FER-10 | 2026-09-02 00:59:42 | 46.14158 | 15.55506 | 80° | 88km/h | 10235m | -11.3m/s | 0°C | 0% | 0hPa | 0V | 00:00:00 | 00:00:00 | 00:00:00 | |
| 9A1FER-3 | 2026-09-02 00:59:28 | 46.14096 | 15.55064 | 77° | 88km/h | 10406m | -14.3m/s | 0°C | 0% | 0hPa | 0V | 00:00:00 | 00:00:00 | 00:00:00 | |
| 9A1FER-10 | 2026-09-02 00:59:27 | 46.14092 | 15.55033 | 76° | 88km/h | 10420m | -11.9m/s | 0°C | 0% | 0hPa | 0V | 00:00:00 | 00:00:00 | 00:00:00 | |
| 9A1FER-3 | 2026-09-02 00:59:13 | 46.14035 | 15.54594 | 81° | 89km/h | 10586m | -11.4m/s | 0°C | 0% | 0hPa | 0V | 00:00:00 | 00:00:00 | 00:00:00 | |
| 9A1FER-10 | 2026-09-02 00:59:12 | 46.14032 | 15.54562 | 82° | 89km/h | 10597m | -10.2m/s | 0°C | 0% | 0hPa | 0V | 00:00:00 | 00:00:00 | 00:00:00 | |
| 9A1FER-3 | 2026-09-02 00:58:58 | 46.13986 | 15.54107 | 83° | 95km/h | 10750m | -10.8m/s | 0°C | 0% | 0hPa | 0V | 00:00:00 | 00:00:00 | 00:00:00 | |
| 9A1FER-10 | 2026-09-02 00:58:57 | 46.13983 | 15.54073 | 81° | 95km/h | 10760m | -8.1m/s | 0°C | 0% | 0hPa | 0V | 00:00:00 | 00:00:00 | 00:00:00 | |
| 9A1FER-10 | 2026-09-02 00:58:42 | 46.13941 | 15.53560 | 84° | 91km/h | 10933m | -12.2m/s | 0°C | 0% | 0hPa | 0V | 00:00:00 | 00:00:00 | 00:00:00 | |
| 9A1FER-3 | 2026-09-02 00:58:41 | 46.13938 | 15.53525 | 84° | 93km/h | 10945m | -11.1m/s | 0°C | 0% | 0hPa | 0V | 00:00:00 | 00:00:00 | 00:00:00 | |
| 9A1FER-10 | 2026-09-02 00:58:27 | 46.13902 | 15.53060 | 85° | 89km/h | 11097m | -9.6m/s | 0°C | 0% | 0hPa | 0V | 00:00:00 | 00:00:00 | 00:00:00 | |
| 9A1FER-3 | 2026-09-02 00:58:26 | 46.13900 | 15.53027 | 86° | 89km/h | 11107m | -10.1m/s | 0°C | 0% | 0hPa | 0V | 00:00:00 | 00:00:00 | 00:00:00 | |
| 9A1FER-10 | 2026-09-02 00:58:12 | 46.13870 | 15.52571 | 84° | 86km/h | 11260m | -10.1m/s | 0°C | 0% | 0hPa | 0V | 00:00:00 | 00:00:00 | 00:00:00 | |
| 9A1FER-3 | 2026-09-02 00:58:11 | 46.13867 | 15.52539 | 85° | 86km/h | 11272m | -12.0m/s | 0°C | 0% | 0hPa | 0V | 00:00:00 | 00:00:00 | 00:00:00 | |
| 9A1FER-10 | 2026-09-02 00:57:57 | 46.13832 | 15.52102 | 86° | 88km/h | 11442m | -11.4m/s | 0°C | 0% | 0hPa | 0V | 00:00:00 | 00:00:00 | 00:00:00 | |
| 9A1FER-3 | 2026-09-02 00:57:55 | 46.13828 | 15.52040 | 85° | 88km/h | 11466m | -12.7m/s | 0°C | 0% | 0hPa | 0V | 00:00:00 | 00:00:00 | 00:00:00 | |
| 9A1FER-10 | 2026-09-02 00:57:42 | 46.13794 | 15.51629 | 84° | 91km/h | 11630m | -11.4m/s | 0°C | 0% | 0hPa | 0V | 00:00:00 | 00:00:00 | 00:00:00 | |
| 9A1FER-3 | 2026-09-02 00:57:40 | 46.13788 | 15.51563 | 84° | 91km/h | 11654m | -12.5m/s | 0°C | 0% | 0hPa | 0V | 00:00:00 | 00:00:00 | 00:00:00 | |
| 9A1FER-10 | 2026-09-02 00:57:27 | 46.13757 | 15.51131 | 85° | 93km/h | 11828m | -13.2m/s | 0°C | 0% | 0hPa | 0V | 00:00:00 | 00:00:00 | 00:00:00 | |
| 9A1FER-3 | 2026-09-02 00:57:25 | 46.13753 | 15.51063 | 86° | 95km/h | 11855m | -13.2m/s | 0°C | 0% | 0hPa | 0V | 00:00:00 | 00:00:00 | 00:00:00 | |
| 9A1FER-10 | 2026-09-02 00:57:12 | 46.13727 | 15.50622 | 87° | 97km/h | 12011m | -12.1m/s | 0°C | 0% | 0hPa | 0V | 00:00:00 | 00:00:00 | 00:00:00 | |
| 9A1FER-3 | 2026-09-02 00:57:10 | 46.13724 | 15.50552 | 87° | 97km/h | 12037m | -12.7m/s | 0°C | 0% | 0hPa | 0V | 00:00:00 | 00:00:00 | 00:00:00 | |
| 9A1FER-10 | 2026-09-02 00:56:57 | 46.13705 | 15.50096 | 88° | 95km/h | 12209m | -11.1m/s | 0°C | 0% | 0hPa | 0V | 00:00:00 | 00:00:00 | 00:00:00 | |
| 9A1FER-3 | 2026-09-02 00:56:55 | 46.13702 | 15.50027 | 86° | 97km/h | 12232m | -9.6m/s | 0°C | 0% | 0hPa | 0V | 00:00:00 | 00:00:00 | 00:00:00 | |
| 9A1FER-10 | 2026-09-02 00:56:42 | 46.13650 | 15.49584 | 80° | 100km/h | 12393m | -9.8m/s | 0°C | 0% | 0hPa | 0V | 00:00:00 | 00:00:00 | 00:00:00 | |
| 9A1FER-3 | 2026-09-02 00:56:40 | 46.13639 | 15.49513 | 77° | 102km/h | 12413m | -10.5m/s | 0°C | 0% | 0hPa | 0V | 00:00:00 | 00:00:00 | 00:00:00 | |
| 9A1FER-10 | 2026-09-02 00:56:27 | 46.13584 | 15.49039 | 84° | 104km/h | 12579m | -13.1m/s | 0°C | 0% | 0hPa | 0V | 00:00:00 | 00:00:00 | 00:00:00 | |
| 9A1FER-3 | 2026-09-02 00:56:25 | 46.13580 | 15.48966 | 88° | 102km/h | 12606m | -13.2m/s | 0°C | 0% | 0hPa | 0V | 00:00:00 | 00:00:00 | 00:00:00 | |
| 9A1FER-10 | 2026-09-02 00:56:12 | 46.13589 | 15.48477 | 95° | 91km/h | 12770m | -12.7m/s | 0°C | 0% | 0hPa | 0V | 00:00:00 | 00:00:00 | 00:00:00 | |
| 9A1FER-3 | 2026-09-02 00:56:10 | 46.13593 | 15.48406 | 94° | 89km/h | 12795m | -12.2m/s | 0°C | 0% | 0hPa | 0V | 00:00:00 | 00:00:00 | 00:00:00 | |
| 9A1FER-10 | 2026-09-02 00:55:57 | 46.13587 | 15.47983 | 82° | 95km/h | 12968m | -11.8m/s | 0°C | 0% | 0hPa | 0V | 00:00:00 | 00:00:00 | 00:00:00 | |
| 9A1FER-3 | 2026-09-02 00:55:55 | 46.13580 | 15.47919 | 82° | 95km/h | 12996m | -15.0m/s | 0°C | 0% | 0hPa | 0V | 00:00:00 | 00:00:00 | 00:00:00 | |
| 9A1FER-10 | 2026-09-02 00:55:42 | 46.13521 | 15.47475 | 79° | 97km/h | 13178m | -14.2m/s | 0°C | 0% | 0hPa | 0V | 00:00:00 | 00:00:00 | 00:00:00 | |
| 9A1FER-3 | 2026-09-02 00:55:40 | 46.13511 | 15.47406 | 77° | 97km/h | 13209m | -14.1m/s | 0°C | 0% | 0hPa | 0V | 00:00:00 | 00:00:00 | 00:00:00 | |
| 9A1FER-10 | 2026-09-02 00:55:27 | 46.13451 | 15.46958 | 78° | 97km/h | 13374m | -12.2m/s | 0°C | 0% | 0hPa | 0V | 00:00:00 | 00:00:00 | 00:00:00 | |
| 9A1FER-3 | 2026-09-02 00:55:25 | 46.13440 | 15.46891 | 76° | 99km/h | 13397m | -10.9m/s | 0°C | 0% | 0hPa | 0V | 00:00:00 | 00:00:00 | 00:00:00 | |
| 9A1FER-10 | 2026-09-02 00:55:12 | 46.13351 | 15.46446 | 74° | 97km/h | 13563m | -11.4m/s | 0°C | 0% | 0hPa | 0V | 00:00:00 | 00:00:00 | 00:00:00 | |
| 9A1FER-3 | 2026-09-02 00:55:10 | 46.13338 | 15.46377 | 76° | 97km/h | 13586m | -10.2m/s | 0°C | 0% | 0hPa | 0V | 00:00:00 | 00:00:00 | 00:00:00 | |
| 9A1FER-10 | 2026-09-02 00:54:57 | 46.13282 | 15.45925 | 82° | 95km/h | 13728m | -12.2m/s | 0°C | 0% | 0hPa | 0V | 00:00:00 | 00:00:00 | 00:00:00 | |
| 9A1FER-3 | 2026-09-02 00:54:55 | 46.13275 | 15.45855 | 81° | 95km/h | 13757m | -14.3m/s | 0°C | 0% | 0hPa | 0V | 00:00:00 | 00:00:00 | 00:00:00 | |
| 9A1FER-10 | 2026-09-02 00:54:42 | 46.13234 | 15.45403 | 87° | 97km/h | 13934m | -14.1m/s | 0°C | 0% | 0hPa | 0V | 00:00:00 | 00:00:00 | 00:00:00 | |
| 9A1FER-3 | 2026-09-02 00:54:40 | 46.13230 | 15.45333 | 87° | 95km/h | 13962m | -12.9m/s | 0°C | 0% | 0hPa | 0V | 00:00:00 | 00:00:00 | 00:00:00 | |
| 9A1FER-10 | 2026-09-02 00:54:27 | 46.13230 | 15.44882 | 95° | 75km/h | 14129m | -9.8m/s | 0°C | 0% | 0hPa | 0V | 00:00:00 | 00:00:00 | 00:00:00 | |
| 9A1FER-3 | 2026-09-02 00:54:25 | 46.13234 | 15.44821 | 95° | 71km/h | 14151m | -10.1m/s | 0°C | 0% | 0hPa | 0V | 00:00:00 | 00:00:00 | 00:00:00 | |
| 9A1FER-10 | 2026-09-02 00:54:12 | 46.13246 | 15.44481 | 89° | 69km/h | 14322m | -12.3m/s | 0°C | 0% | 0hPa | 0V | 00:00:00 | 00:00:00 | 00:00:00 | |
| 9A1FER-3 | 2026-09-02 00:54:10 | 46.13245 | 15.44432 | 91° | 69km/h | 14346m | -11.8m/s | 0°C | 0% | 0hPa | 0V | 00:00:00 | 00:00:00 | 00:00:00 | |
| 9A1FER-10 | 2026-09-02 00:53:57 | 46.13217 | 15.44108 | 78° | 75km/h | 14518m | -15.8m/s | 0°C | 0% | 0hPa | 0V | 00:00:00 | 00:00:00 | 00:00:00 | |
| 9A1FER-3 | 2026-09-02 00:53:55 | 46.13208 | 15.44057 | 78° | 77km/h | 14548m | -13.8m/s | 0°C | 0% | 0hPa | 0V | 00:00:00 | 00:00:00 | 00:00:00 | |
| 9A1FER-10 | 2026-09-02 00:53:42 | 46.13151 | 15.43706 | 75° | 80km/h | 14675m | -6.9m/s | 0°C | 0% | 0hPa | 0V | 00:00:00 | 00:00:00 | 00:00:00 | |
| 9A1FER-3 | 2026-09-02 00:53:40 | 46.13141 | 15.43652 | 76° | 80km/h | 14697m | -12.2m/s | 0°C | 0% | 0hPa | 0V | 00:00:00 | 00:00:00 | 00:00:00 | |
| 9A1FER-10 | 2026-09-02 00:53:27 | 46.13076 | 15.43281 | 79° | 80km/h | 14840m | -12.6m/s | 0°C | 0% | 0hPa | 0V | 00:00:00 | 00:00:00 | 00:00:00 | |
| 9A1FER-3 | 2026-09-02 00:53:25 | 46.13068 | 15.43222 | 81° | 80km/h | 14864m | -10.9m/s | 0°C | 0% | 0hPa | 0V | 00:00:00 | 00:00:00 | 00:00:00 | |
| 9A1FER-10 | 2026-09-02 00:53:12 | 46.13037 | 15.42846 | 88° | 73km/h | 15003m | -12.3m/s | 0°C | 0% | 0hPa | 0V | 00:00:00 | 00:00:00 | 00:00:00 | |
| 9A1FER-3 | 2026-09-02 00:53:10 | 46.13035 | 15.42790 | 89° | 71km/h | 15028m | -11.2m/s | 0°C | 0% | 0hPa | 0V | 00:00:00 | 00:00:00 | 00:00:00 | |
| 9A1FER-10 | 2026-09-02 00:52:57 | 46.13021 | 15.42451 | 88° | 71km/h | 15167m | -12.1m/s | 0°C | 0% | 0hPa | 0V | 00:00:00 | 00:00:00 | 00:00:00 | |
| 9A1FER-3 | 2026-09-02 00:52:55 | 46.13020 | 15.42401 | 88° | 73km/h | 15192m | -10.8m/s | 0°C | 0% | 0hPa | 0V | 00:00:00 | 00:00:00 | 00:00:00 | |
| 9A1FER-10 | 2026-09-02 00:52:42 | 46.13009 | 15.42060 | 88° | 71km/h | 15357m | -14.4m/s | 0°C | 0% | 0hPa | 0V | 00:00:00 | 00:00:00 | 00:00:00 | |
| 9A1FER-10 | 2026-09-02 00:52:26 | 46.12985 | 15.41647 | 86° | 73km/h | 15589m | -13.3m/s | 0°C | 0% | 0hPa | 0V | 00:00:00 | 00:00:00 | 00:00:00 | |
| 9A1FER-10 | 2026-09-02 00:52:11 | 46.12957 | 15.41249 | 78° | 69km/h | 15788m | -12.3m/s | 0°C | 0% | 0hPa | 0V | 00:00:00 | 00:00:00 | 00:00:00 | |
| 9A1FER-3 | 2026-09-02 00:52:10 | 46.12953 | 15.41223 | 79° | 69km/h | 15800m | -13.0m/s | 0°C | 0% | 0hPa | 0V | 00:00:00 | 00:00:00 | 00:00:00 | |
| 9A1FER-10 | 2026-09-02 00:51:56 | 46.12902 | 15.40874 | 77° | 66km/h | 15997m | -14.1m/s | 0°C | 0% | 0hPa | 0V | 00:00:00 | 00:00:00 | 00:00:00 | |
| 9A1FER-3 | 2026-09-02 00:51:55 | 46.12898 | 15.40851 | 78° | 66km/h | 16011m | -13.8m/s | 0°C | 0% | 0hPa | 0V | 00:00:00 | 00:00:00 | 00:00:00 | |
| 9A1FER-10 | 2026-09-02 00:51:41 | 46.12868 | 15.40520 | 88° | 66km/h | 16208m | -11.3m/s | 0°C | 0% | 0hPa | 0V | 00:00:00 | 00:00:00 | 00:00:00 | |
| 9A1FER-3 | 2026-09-02 00:51:40 | 46.12867 | 15.40495 | 89° | 64km/h | 16221m | -11.3m/s | 0°C | 0% | 0hPa | 0V | 00:00:00 | 00:00:00 | 00:00:00 | |
| 9A1FER-10 | 2026-09-02 00:51:26 | 46.12859 | 15.40169 | 92° | 60km/h | 16398m | -15.0m/s | 0°C | 0% | 0hPa | 0V | 00:00:00 | 00:00:00 | 00:00:00 | |
| 9A1FER-3 | 2026-09-02 00:51:25 | 46.12860 | 15.40145 | 92° | 60km/h | 16412m | -12.7m/s | 0°C | 0% | 0hPa | 0V | 00:00:00 | 00:00:00 | 00:00:00 | |
| 9A1FER-10 | 2026-09-02 00:51:11 | 46.12858 | 15.39840 | 89° | 55km/h | 16610m | -11.5m/s | 0°C | 0% | 0hPa | 0V | 00:00:00 | 00:00:00 | 00:00:00 | |
| 9A1FER-3 | 2026-09-02 00:51:10 | 46.12858 | 15.39822 | 86° | 55km/h | 16622m | -11.6m/s | 0°C | 0% | 0hPa | 0V | 00:00:00 | 00:00:00 | 00:00:00 | |
| 9A1FER-10 | 2026-09-02 00:50:56 | 46.12844 | 15.39543 | 90° | 55km/h | 16784m | -8.5m/s | 0°C | 0% | 0hPa | 0V | 00:00:00 | 00:00:00 | 00:00:00 | |
| 9A1FER-10 | 2026-09-02 00:50:41 | 46.12852 | 15.39243 | 91° | 47km/h | 16955m | -9.3m/s | 0°C | 0% | 0hPa | 0V | 00:00:00 | 00:00:00 | 00:00:00 | |
| 9A1FER-3 | 2026-09-02 00:50:40 | 46.12852 | 15.39227 | 88° | 47km/h | 16965m | -10.9m/s | 0°C | 0% | 0hPa | 0V | 00:00:00 | 00:00:00 | 00:00:00 | |
| PETON7-10 | 2026-09-02 00:50:29 | 46.12835 | 15.39038 | 80° | 49km/h | 17102m | -15.7m/s | 0°C | 0% | 0hPa | 0V | 00:00:00 | 00:00:00 | 00:00:00 | |
| 9A1FER-10 | 2026-09-02 00:50:26 | 46.12827 | 15.38986 | 80° | 49km/h | 17145m | -11.9m/s | 0°C | 0% | 0hPa | 0V | 00:00:00 | 00:00:00 | 00:00:00 | |
| 9A1FER-3 | 2026-09-02 00:50:25 | 46.12824 | 15.38968 | 77° | 49km/h | 17158m | -12.6m/s | 0°C | 0% | 0hPa | 0V | 00:00:00 | 00:00:00 | 00:00:00 | |
| PETON7-10 | 2026-09-02 00:50:14 | 46.12805 | 15.38779 | 86° | 49km/h | 17296m | -12.0m/s | 0°C | 0% | 0hPa | 0V | 00:00:00 | 00:00:00 | 00:00:00 | |
| 9A1FER-10 | 2026-09-02 00:50:11 | 46.12803 | 15.38723 | 86° | 51km/h | 17335m | -11.2m/s | 0°C | 0% | 0hPa | 0V | 00:00:00 | 00:00:00 | 00:00:00 | |
| 9A1FER-3 | 2026-09-02 00:50:10 | 46.12802 | 15.38706 | 86° | 53km/h | 17347m | -12.3m/s | 0°C | 0% | 0hPa | 0V | 00:00:00 | 00:00:00 | 00:00:00 | |
| PETON7-10 | 2026-09-02 00:49:59 | 46.12797 | 15.38500 | 93° | 47km/h | 17473m | -10.8m/s | 0°C | 0% | 0hPa | 0V | 00:00:00 | 00:00:00 | 00:00:00 | |
| 9A1FER-10 | 2026-09-02 00:49:56 | 46.12801 | 15.38440 | 102° | 46km/h | 17504m | -10.4m/s | 0°C | 0% | 0hPa | 0V | 00:00:00 | 00:00:00 | 00:00:00 | |
| 9A1FER-3 | 2026-09-02 00:49:55 | 46.12803 | 15.38422 | 100° | 44km/h | 17515m | -10.5m/s | 0°C | 0% | 0hPa | 0V | 00:00:00 | 00:00:00 | 00:00:00 | |
| 9A1FER-10 | 2026-09-02 00:49:41 | 46.12871 | 15.38210 | 120° | 24km/h | 17751m | -17.6m/s | 0°C | 0% | 0hPa | 0V | 00:00:00 | 00:00:00 | 00:00:00 | |
| 9A1FER-10 | 2026-09-02 00:49:25 | 46.12921 | 15.38097 | 139° | 24km/h | 18017m | -14.0m/s | 0°C | 0% | 0hPa | 0V | 00:00:00 | 00:00:00 | 00:00:00 | |
| PETON7-10 | 2026-09-02 00:49:24 | 46.12924 | 15.38092 | 122° | 27km/h | 18031m | -14.4m/s | 0°C | 0% | 0hPa | 0V | 00:00:00 | 00:00:00 | 00:00:00 | |
| 9A1FER-10 | 2026-09-02 00:49:10 | 46.12912 | 15.37964 | 70° | 29km/h | 18258m | -17.2m/s | 0°C | 0% | 0hPa | 0V | 00:00:00 | 00:00:00 | 00:00:00 | |
| PETON7-10 | 2026-09-02 00:49:08 | 46.12904 | 15.37936 | 71° | 47km/h | 18294m | -18.8m/s | 0°C | 0% | 0hPa | 0V | 00:00:00 | 00:00:00 | 00:00:00 | |
| 9A1FER-3 | 2026-09-02 00:48:55 | 46.12855 | 15.37722 | 80° | 38km/h | 18512m | -16.8m/s | 0°C | 0% | 0hPa | 0V | 00:00:00 | 00:00:00 | 00:00:00 | |
| PETON7-10 | 2026-09-02 00:48:51 | 46.12849 | 15.37654 | 88° | 29km/h | 18578m | -15.2m/s | 0°C | 0% | 0hPa | 0V | 00:00:00 | 00:00:00 | 00:00:00 | |
| 9A1FER-3 | 2026-09-02 00:48:40 | 46.12851 | 15.37513 | 85° | 20km/h | 18764m | -15.3m/s | 0°C | 0% | 0hPa | 0V | 00:00:00 | 00:00:00 | 00:00:00 | |
| PETON7-10 | 2026-09-02 00:48:32 | 46.12835 | 15.37459 | 66° | 29km/h | 18909m | -19.3m/s | 0°C | 0% | 0hPa | 0V | 00:00:00 | 00:00:00 | 00:00:00 | |
| 9A1FER-3 | 2026-09-02 00:48:25 | 46.12826 | 15.37404 | 82° | 33km/h | 19035m | -19.5m/s | 0°C | 0% | 0hPa | 0V | 00:00:00 | 00:00:00 | 00:00:00 | |
| PETON7-10 | 2026-09-02 00:48:11 | 46.12840 | 15.37243 | 110° | 9km/h | 19289m | -19.1m/s | 0°C | 0% | 0hPa | 0V | 00:00:00 | 00:00:00 | 00:00:00 | |
| 9A1FER-3 | 2026-09-02 00:48:10 | 46.12842 | 15.37233 | 107° | 15km/h | 19307m | -16.6m/s | 0°C | 0% | 0hPa | 0V | 00:00:00 | 00:00:00 | 00:00:00 | |
| 9A1FER-3 | 2026-09-02 00:47:55 | 46.12868 | 15.37173 | 111° | 9km/h | 19585m | -19.1m/s | 0°C | 0% | 0hPa | 0V | 00:00:00 | 00:00:00 | 00:00:00 | |
| PETON7-10 | 2026-09-02 00:47:50 | 46.12866 | 15.37170 | 52° | 18km/h | 19677m | -17.1m/s | 0°C | 0% | 0hPa | 0V | 00:00:00 | 00:00:00 | 00:00:00 | |
| 9A1FER-3 | 2026-09-02 00:47:40 | 46.12849 | 15.37121 | 56° | 26km/h | 19853m | -16.7m/s | 0°C | 0% | 0hPa | 0V | 00:00:00 | 00:00:00 | 00:00:00 | |
| PETON7-10 | 2026-09-02 00:47:26 | 46.12826 | 15.37000 | 94° | 24km/h | 20114m | -17.2m/s | 0°C | 0% | 0hPa | 0V | 00:00:00 | 00:00:00 | 00:00:00 | |
| 9A1FER-3 | 2026-09-02 00:47:25 | 46.12827 | 15.36990 | 99° | 18km/h | 20131m | -16.5m/s | 0°C | 0% | 0hPa | 0V | 00:00:00 | 00:00:00 | 00:00:00 | |
| 9A1FER-3 | 2026-09-02 00:47:09 | 46.12867 | 15.36912 | 73° | 13km/h | 20411m | -17.8m/s | 0°C | 0% | 0hPa | 0V | 00:00:00 | 00:00:00 | 00:00:00 | |
| 9A1FER-3 | 2026-09-02 00:46:54 | 46.12839 | 15.36851 | 46° | 27km/h | 20656m | -16.1m/s | 0°C | 0% | 0hPa | 0V | 00:00:00 | 00:00:00 | 00:00:00 | |
| PETON7-10 | 2026-09-02 00:46:53 | 46.12835 | 15.36846 | 45° | 29km/h | 20672m | -16.5m/s | 0°C | 0% | 0hPa | 0V | 00:00:00 | 00:00:00 | 00:00:00 | |
| 9A1FER-3 | 2026-09-02 00:46:39 | 46.12770 | 15.36734 | 46° | 16km/h | 20882m | -13.2m/s | 0°C | 0% | 0hPa | 0V | 00:00:00 | 00:00:00 | 00:00:00 | |
| PETON7-10 | 2026-09-02 00:46:38 | 46.12765 | 15.36727 | 54° | 20km/h | 20895m | -13.1m/s | 0°C | 0% | 0hPa | 0V | 00:00:00 | 00:00:00 | 00:00:00 | |
| 9A1FER-10 | 2026-09-02 00:46:27 | 46.12743 | 15.36667 | 61° | 15km/h | 21069m | -14.4m/s | 0°C | 0% | 0hPa | 0V | 00:00:00 | 00:00:00 | 00:00:00 | |
| 9A1FER-3 | 2026-09-02 00:46:24 | 46.12740 | 15.36667 | 325° | 13km/h | 21123m | -18.8m/s | 0°C | 0% | 0hPa | 0V | 00:00:00 | 00:00:00 | 00:00:00 | |
| PETON7-10 | 2026-09-02 00:46:23 | 46.12738 | 15.36670 | 312° | 15km/h | 21142m | -18.9m/s | 0°C | 0% | 0hPa | 0V | 00:00:00 | 00:00:00 | 00:00:00 | |
| 9A1FER-3 | 2026-09-02 00:46:09 | 46.12696 | 15.36699 | 353° | 26km/h | 21384m | -14.5m/s | 0°C | 0% | 0hPa | 0V | 00:00:00 | 00:00:00 | 00:00:00 | |
| 9A1FER-10 | 2026-09-02 00:46:08 | 46.12691 | 15.36700 | 358° | 26km/h | 21399m | -14.8m/s | 0°C | 0% | 0hPa | 0V | 00:00:00 | 00:00:00 | 00:00:00 | |
| 9A1FER-3 | 2026-09-02 00:45:54 | 46.12601 | 15.36692 | 31° | 20km/h | 21623m | -18.5m/s | 0°C | 0% | 0hPa | 0V | 00:00:00 | 00:00:00 | 00:00:00 | |
| PETON7-10 | 2026-09-02 00:45:53 | 46.12596 | 15.36686 | 52° | 20km/h | 21641m | -18.7m/s | 0°C | 0% | 0hPa | 0V | 00:00:00 | 00:00:00 | 00:00:00 | |
| 9A1FER-10 | 2026-09-02 00:45:51 | 46.12592 | 15.36671 | 79° | 18km/h | 21676m | -18.7m/s | 0°C | 0% | 0hPa | 0V | 00:00:00 | 00:00:00 | 00:00:00 | |
| OE3JTB-15 | 2026-09-02 00:45:45 | 46.12575 | 15.36640 | 6° | 20km/h | 21764m | -9.4m/s | 0°C | 0% | 0hPa | 0V | 00:00:00 | 00:00:00 | 00:00:00 | |
| 9A1FER-3 | 2026-09-02 00:45:39 | 46.12564 | 15.36613 | 105° | 18km/h | 21793m | 4.8m/s | 0°C | 0% | 0hPa | 0V | 00:00:00 | 00:00:00 | 00:00:00 | |
| PETON7-10 | 2026-09-02 00:45:38 | 46.12565 | 15.36606 | 97° | 18km/h | 21788m | 5.0m/s | 0°C | 0% | 0hPa | 0V | 00:00:00 | 00:00:00 | 00:00:00 | |
| 9A1FER-10 | 2026-09-02 00:45:36 | 46.12563 | 15.36595 | 48° | 18km/h | 21777m | 5.0m/s | 0°C | 0% | 0hPa | 0V | 00:00:00 | 00:00:00 | 00:00:00 | |
| 9A1FER-3 | 2026-09-02 00:45:24 | 46.12541 | 15.36527 | 54° | 22km/h | 21712m | 6.7m/s | 0°C | 0% | 0hPa | 0V | 00:00:00 | 00:00:00 | 00:00:00 | |
| PETON7-10 | 2026-09-02 00:45:23 | 46.12538 | 15.36523 | 40° | 22km/h | 21706m | 4.5m/s | 0°C | 0% | 0hPa | 0V | 00:00:00 | 00:00:00 | 00:00:00 | |
| 9A1FER-10 | 2026-09-02 00:45:21 | 46.12529 | 15.36513 | 40° | 24km/h | 21694m | 5.0m/s | 0°C | 0% | 0hPa | 0V | 00:00:00 | 00:00:00 | 00:00:00 | |
| PETON7-10 | 2026-09-02 00:45:08 | 46.12472 | 15.36451 | 34° | 26km/h | 21628m | 3.4m/s | 0°C | 0% | 0hPa | 0V | 00:00:00 | 00:00:00 | 00:00:00 | |
| 9A1FER-10 | 2026-09-02 00:45:06 | 46.12463 | 15.36441 | 35° | 26km/h | 21618m | 5.3m/s | 0°C | 0% | 0hPa | 0V | 00:00:00 | 00:00:00 | 00:00:00 | |
| PETON7-10 | 2026-09-02 00:44:53 | 46.12378 | 15.36415 | 7° | 27km/h | 21549m | 6.0m/s | 0°C | 0% | 0hPa | 0V | 00:00:00 | 00:00:00 | 00:00:00 | |
| 9A1FER-10 | 2026-09-02 00:44:51 | 46.12365 | 15.36412 | 10° | 27km/h | 21537m | 5.6m/s | 0°C | 0% | 0hPa | 0V | 00:00:00 | 00:00:00 | 00:00:00 | |
| 9A1FER-3 | 2026-09-02 00:44:38 | 46.12276 | 15.36404 | 352° | 22km/h | 21470m | 5.1m/s | 0°C | 0% | 0hPa | 0V | 00:00:00 | 00:00:00 | 00:00:00 | |
| PETON7-10 | 2026-09-02 00:44:37 | 46.12270 | 15.36405 | 355° | 20km/h | 21465m | 4.3m/s | 0°C | 0% | 0hPa | 0V | 00:00:00 | 00:00:00 | 00:00:00 | |
| 9A1FER-10 | 2026-09-02 00:44:36 | 46.12263 | 15.36405 | 4° | 22km/h | 21459m | 6.7m/s | 0°C | 0% | 0hPa | 0V | 00:00:00 | 00:00:00 | 00:00:00 | |
| 9A1FER-3 | 2026-09-02 00:44:23 | 46.12197 | 15.36412 | 333° | 18km/h | 21392m | 6.0m/s | 0°C | 0% | 0hPa | 0V | 00:00:00 | 00:00:00 | 00:00:00 | |
| PETON7-10 | 2026-09-02 00:44:22 | 46.12192 | 15.36416 | 322° | 18km/h | 21387m | 4.2m/s | 0°C | 0% | 0hPa | 0V | 00:00:00 | 00:00:00 | 00:00:00 | |
| 9A1FER-10 | 2026-09-02 00:44:21 | 46.12189 | 15.36420 | 327° | 18km/h | 21383m | 4.2m/s | 0°C | 0% | 0hPa | 0V | 00:00:00 | 00:00:00 | 00:00:00 | |
| 9A1FER-3 | 2026-09-02 00:44:08 | 46.12132 | 15.36450 | 16° | 15km/h | 21317m | 4.3m/s | 0°C | 0% | 0hPa | 0V | 00:00:00 | 00:00:00 | 00:00:00 | |
| PETON7-10 | 2026-09-02 00:44:07 | 46.12128 | 15.36448 | 21° | 11km/h | 21312m | 4.9m/s | 0°C | 0% | 0hPa | 0V | 00:00:00 | 00:00:00 | 00:00:00 | |
| 9A1FER-10 | 2026-09-02 00:44:06 | 46.12125 | 15.36447 | 359° | 15km/h | 21307m | 5.8m/s | 0°C | 0% | 0hPa | 0V | 00:00:00 | 00:00:00 | 00:00:00 | |
| 9A1FER-3 | 2026-09-02 00:43:53 | 46.12091 | 15.36487 | 304° | 15km/h | 21240m | 5.7m/s | 0°C | 0% | 0hPa | 0V | 00:00:00 | 00:00:00 | 00:00:00 | |
| PETON7-10 | 2026-09-02 00:43:52 | 46.12089 | 15.36489 | 314° | 13km/h | 21235m | 4.2m/s | 0°C | 0% | 0hPa | 0V | 00:00:00 | 00:00:00 | 00:00:00 | |
| 9A1FER-10 | 2026-09-02 00:43:51 | 46.12087 | 15.36493 | 306° | 15km/h | 21231m | 4.5m/s | 0°C | 0% | 0hPa | 0V | 00:00:00 | 00:00:00 | 00:00:00 | |
| 9A1FER-3 | 2026-09-02 00:43:38 | 46.12056 | 15.36539 | 299° | 9km/h | 21162m | 4.3m/s | 0°C | 0% | 0hPa | 0V | 00:00:00 | 00:00:00 | 00:00:00 | |
| PETON7-10 | 2026-09-02 00:43:37 | 46.12053 | 15.36544 | 298° | 7km/h | 21157m | 5.1m/s | 0°C | 0% | 0hPa | 0V | 00:00:00 | 00:00:00 | 00:00:00 | |
| 9A1FER-10 | 2026-09-02 00:43:36 | 46.12052 | 15.36549 | 299° | 7km/h | 21152m | 5.6m/s | 0°C | 0% | 0hPa | 0V | 00:00:00 | 00:00:00 | 00:00:00 | |
| 9A1FER-3 | 2026-09-02 00:43:23 | 46.12037 | 15.36546 | 39° | 9km/h | 21086m | 6.1m/s | 0°C | 0% | 0hPa | 0V | 00:00:00 | 00:00:00 | 00:00:00 | |
| PETON7-10 | 2026-09-02 00:43:21 | 46.12035 | 15.36543 | 30° | 11km/h | 21075m | 6.1m/s | 0°C | 0% | 0hPa | 0V | 00:00:00 | 00:00:00 | 00:00:00 | |
| 9A1FER-3 | 2026-09-02 00:43:08 | 46.12016 | 15.36508 | 92° | 18km/h | 21009m | 4.3m/s | 0°C | 0% | 0hPa | 0V | 00:00:00 | 00:00:00 | 00:00:00 | |
| 9A1FER-10 | 2026-09-02 00:43:06 | 46.12015 | 15.36498 | 64° | 22km/h | 20998m | 5.2m/s | 0°C | 0% | 0hPa | 0V | 00:00:00 | 00:00:00 | 00:00:00 | |
| OE3JTB-15 | 2026-09-02 00:43:05 | 46.12012 | 15.36491 | 62° | 58km/h | 20993m | 5.1m/s | 0°C | 0% | 0hPa | 0V | 00:00:00 | 00:00:00 | 00:00:00 | |
| 9A1FER-3 | 2026-09-02 00:42:53 | 46.11976 | 15.36423 | 38° | 27km/h | 20930m | 5.6m/s | 0°C | 0% | 0hPa | 0V | 00:00:00 | 00:00:00 | 00:00:00 | |
| 9A1FER-10 | 2026-09-02 00:42:51 | 46.11965 | 15.36408 | 43° | 29km/h | 20920m | 4.0m/s | 0°C | 0% | 0hPa | 0V | 00:00:00 | 00:00:00 | 00:00:00 | |
| PETON7-10 | 2026-09-02 00:42:50 | 46.11958 | 15.36417 | 44° | 27km/h | 20916m | 3.7m/s | 0°C | 0% | 0hPa | 0V | 00:00:00 | 00:00:00 | 00:00:00 | |
| 9A1FER-3 | 2026-09-02 00:42:38 | 46.11904 | 15.36310 | 49° | 33km/h | 20854m | 3.8m/s | 0°C | 0% | 0hPa | 0V | 00:00:00 | 00:00:00 | 00:00:00 | |
| 9A1FER-10 | 2026-09-02 00:42:36 | 46.11894 | 15.36294 | 42° | 31km/h | 20844m | 5.0m/s | 0°C | 0% | 0hPa | 0V | 00:00:00 | 00:00:00 | 00:00:00 | |
| PETON7-10 | 2026-09-02 00:42:35 | 46.11888 | 15.36286 | 36° | 33km/h | 20838m | 6.0m/s | 0°C | 0% | 0hPa | 0V | 00:00:00 | 00:00:00 | 00:00:00 | |
| 9A1FER-3 | 2026-09-02 00:42:23 | 46.11817 | 15.36197 | 31° | 26km/h | 20778m | 4.0m/s | 0°C | 0% | 0hPa | 0V | 00:00:00 | 00:00:00 | 00:00:00 | |
| 9A1FER-10 | 2026-09-02 00:42:21 | 46.11804 | 15.36184 | 40° | 24km/h | 20767m | 6.5m/s | 0°C | 0% | 0hPa | 0V | 00:00:00 | 00:00:00 | 00:00:00 | |
| PETON7-10 | 2026-09-02 00:42:20 | 46.11797 | 15.36174 | 47° | 24km/h | 20761m | 4.6m/s | 0°C | 0% | 0hPa | 0V | 00:00:00 | 00:00:00 | 00:00:00 | |
| 9A1FER-3 | 2026-09-02 00:42:07 | 46.11742 | 15.36088 | 65° | 20km/h | 20693m | 4.2m/s | 0°C | 0% | 0hPa | 0V | 00:00:00 | 00:00:00 | 00:00:00 | |
| PETON7-10 | 2026-09-02 00:42:04 | 46.11734 | 15.36070 | 38° | 20km/h | 20677m | 5.3m/s | 0°C | 0% | 0hPa | 0V | 00:00:00 | 00:00:00 | 00:00:00 | |
| 9A1FER-3 | 2026-09-02 00:41:52 | 46.11688 | 15.36018 | 44° | 16km/h | 20616m | 5.5m/s | 0°C | 0% | 0hPa | 0V | 00:00:00 | 00:00:00 | 00:00:00 | |
| 9A1FER-10 | 2026-09-02 00:41:49 | 46.11678 | 15.36005 | 46° | 16km/h | 20601m | 4.1m/s | 0°C | 0% | 0hPa | 0V | 00:00:00 | 00:00:00 | 00:00:00 | |
| PETON7-10 | 2026-09-02 00:41:48 | 46.11675 | 15.36000 | 61° | 16km/h | 20596m | 6.4m/s | 0°C | 0% | 0hPa | 0V | 00:00:00 | 00:00:00 | 00:00:00 | |
| 9A1FER-3 | 2026-09-02 00:41:37 | 46.11654 | 15.35947 | 76° | 11km/h | 20539m | 4.3m/s | 0°C | 0% | 0hPa | 0V | 00:00:00 | 00:00:00 | 00:00:00 | |
| PETON7-10 | 2026-09-02 00:41:33 | 46.11642 | 15.35939 | 344° | 11km/h | 20519m | 5.0m/s | 0°C | 0% | 0hPa | 0V | 00:00:00 | 00:00:00 | 00:00:00 | |
| 9A1FER-3 | 2026-09-02 00:41:22 | 46.11623 | 15.35919 | 20° | 13km/h | 20464m | 6.0m/s | 0°C | 0% | 0hPa | 0V | 00:00:00 | 00:00:00 | 00:00:00 | |
| 9A1FER-10 | 2026-09-02 00:41:19 | 46.11620 | 15.35910 | 72° | 15km/h | 20449m | 5.6m/s | 0°C | 0% | 0hPa | 0V | 00:00:00 | 00:00:00 | 00:00:00 | |
| PETON7-10 | 2026-09-02 00:41:16 | 46.11618 | 15.35900 | 95° | 13km/h | 20435m | 5.7m/s | 0°C | 0% | 0hPa | 0V | 00:00:00 | 00:00:00 | 00:00:00 | |
| 9A1FER-3 | 2026-09-02 00:41:07 | 46.11614 | 15.35856 | 93° | 13km/h | 20393m | 3.8m/s | 0°C | 0% | 0hPa | 0V | 00:00:00 | 00:00:00 | 00:00:00 | |
| 9A1FER-10 | 2026-09-02 00:41:04 | 46.11616 | 15.35840 | 101° | 11km/h | 20376m | 5.8m/s | 0°C | 0% | 0hPa | 0V | 00:00:00 | 00:00:00 | 00:00:00 | |
| PETON7-10 | 2026-09-02 00:41:01 | 46.11617 | 15.35834 | 141° | 13km/h | 20362m | 5.6m/s | 0°C | 0% | 0hPa | 0V | 00:00:00 | 00:00:00 | 00:00:00 | |
| 9A1FER-3 | 2026-09-02 00:40:52 | 46.11632 | 15.35797 | 162° | 16km/h | 20315m | 6.3m/s | 0°C | 0% | 0hPa | 0V | 00:00:00 | 00:00:00 | 00:00:00 | |
| 9A1FER-10 | 2026-09-02 00:40:49 | 46.11641 | 15.35795 | 157° | 18km/h | 20299m | 4.4m/s | 0°C | 0% | 0hPa | 0V | 00:00:00 | 00:00:00 | 00:00:00 | |
| PETON7-10 | 2026-09-02 00:40:46 | 46.11649 | 15.35786 | 153° | 20km/h | 20284m | 5.5m/s | 0°C | 0% | 0hPa | 0V | 00:00:00 | 00:00:00 | 00:00:00 | |
| 9A1FER-3 | 2026-09-02 00:40:37 | 46.11683 | 15.35746 | 134° | 22km/h | 20239m | 5.8m/s | 0°C | 0% | 0hPa | 0V | 00:00:00 | 00:00:00 | 00:00:00 | |
| 9A1FER-10 | 2026-09-02 00:40:34 | 46.11695 | 15.35731 | 130° | 22km/h | 20224m | 5.8m/s | 0°C | 0% | 0hPa | 0V | 00:00:00 | 00:00:00 | 00:00:00 | |
| PETON7-10 | 2026-09-02 00:40:31 | 46.11706 | 15.35716 | 137° | 22km/h | 20209m | 4.1m/s | 0°C | 0% | 0hPa | 0V | 00:00:00 | 00:00:00 | 00:00:00 | |
| 9A1FER-3 | 2026-09-02 00:40:22 | 46.11731 | 15.35653 | 128° | 26km/h | 20161m | 5.0m/s | 0°C | 0% | 0hPa | 0V | 00:00:00 | 00:00:00 | 00:00:00 | |
| 9A1FER-10 | 2026-09-02 00:40:19 | 46.11740 | 15.35627 | 104° | 26km/h | 20145m | 5.2m/s | 0°C | 0% | 0hPa | 0V | 00:00:00 | 00:00:00 | 00:00:00 | |
| PETON7-10 | 2026-09-02 00:40:16 | 46.11743 | 15.35604 | 90° | 26km/h | 20128m | 4.1m/s | 0°C | 0% | 0hPa | 0V | 00:00:00 | 00:00:00 | 00:00:00 | |
| 9A1FER-3 | 2026-09-02 00:40:07 | 46.11751 | 15.35519 | 89° | 29km/h | 20081m | 5.5m/s | 0°C | 0% | 0hPa | 0V | 00:00:00 | 00:00:00 | 00:00:00 | |
| 9A1FER-10 | 2026-09-02 00:40:03 | 46.11748 | 15.35478 | 86° | 31km/h | 20059m | 5.7m/s | 0°C | 0% | 0hPa | 0V | 00:00:00 | 00:00:00 | 00:00:00 | |
| PETON7-10 | 2026-09-02 00:40:01 | 46.11749 | 15.35462 | 93° | 31km/h | 20049m | 6.2m/s | 0°C | 0% | 0hPa | 0V | 00:00:00 | 00:00:00 | 00:00:00 | |
| 9A1FER-3 | 2026-09-02 00:39:52 | 46.11736 | 15.35363 | 78° | 27km/h | 20002m | 4.3m/s | 0°C | 0% | 0hPa | 0V | 00:00:00 | 00:00:00 | 00:00:00 | |
| 9A1FER-10 | 2026-09-02 00:39:47 | 46.11729 | 15.35314 | 80° | 26km/h | 19977m | 6.6m/s | 0°C | 0% | 0hPa | 0V | 00:00:00 | 00:00:00 | 00:00:00 | |
| PETON7-10 | 2026-09-02 00:39:46 | 46.11727 | 15.35302 | 73° | 27km/h | 19971m | 5.2m/s | 0°C | 0% | 0hPa | 0V | 00:00:00 | 00:00:00 | 00:00:00 | |
| 9A1FER-3 | 2026-09-02 00:39:37 | 46.11699 | 15.35227 | 68° | 24km/h | 19924m | 4.6m/s | 0°C | 0% | 0hPa | 0V | 00:00:00 | 00:00:00 | 00:00:00 | |
| 9A1FER-10 | 2026-09-02 00:39:31 | 46.11687 | 15.35176 | 62° | 20km/h | 19894m | 6.6m/s | 0°C | 0% | 0hPa | 0V | 00:00:00 | 00:00:00 | 00:00:00 | |
| 9A1FER-3 | 2026-09-02 00:39:22 | 46.11666 | 15.35114 | 79° | 18km/h | 19846m | 5.9m/s | 0°C | 0% | 0hPa | 0V | 00:00:00 | 00:00:00 | 00:00:00 | |
| PETON7-10 | 2026-09-02 00:39:16 | 46.11650 | 15.35080 | 55° | 18km/h | 19814m | 7.0m/s | 0°C | 0% | 0hPa | 0V | 00:00:00 | 00:00:00 | 00:00:00 | |
| 9A1FER-3 | 2026-09-02 00:39:07 | 46.11638 | 15.35023 | 58° | 11km/h | 19770m | 3.8m/s | 0°C | 0% | 0hPa | 0V | 00:00:00 | 00:00:00 | 00:00:00 | |
| PETON7-10 | 2026-09-02 00:39:01 | 46.11624 | 15.34997 | 82° | 5km/h | 19740m | 5.5m/s | 0°C | 0% | 0hPa | 0V | 00:00:00 | 00:00:00 | 00:00:00 | |
| 9A1FER-10 | 2026-09-02 00:38:59 | 46.11622 | 15.34991 | 42° | 5km/h | 19730m | 3.2m/s | 0°C | 0% | 0hPa | 0V | 00:00:00 | 00:00:00 | 00:00:00 | |
| 9A1FER-3 | 2026-09-02 00:38:52 | 46.11619 | 15.34977 | 120° | 5km/h | 19694m | 3.9m/s | 0°C | 0% | 0hPa | 0V | 00:00:00 | 00:00:00 | 00:00:00 | |
| 9A1FER-3 | 2026-09-02 00:38:37 | 46.11624 | 15.34965 | 261° | 11km/h | 19616m | 5.2m/s | 0°C | 0% | 0hPa | 0V | 00:00:00 | 00:00:00 | 00:00:00 | |
| PETON7-10 | 2026-09-02 00:38:30 | 46.11627 | 15.34953 | 132° | 18km/h | 19577m | 5.6m/s | 0°C | 0% | 0hPa | 0V | 00:00:00 | 00:00:00 | 00:00:00 | |
| 9A1FER-10 | 2026-09-02 00:38:27 | 46.11635 | 15.34941 | 139° | 16km/h | 19562m | 4.6m/s | 0°C | 0% | 0hPa | 0V | 00:00:00 | 00:00:00 | 00:00:00 | |
| 9A1FER-3 | 2026-09-02 00:38:23 | 46.11638 | 15.34923 | 123° | 22km/h | 19536m | 5.4m/s | 0°C | 0% | 0hPa | 0V | 00:00:00 | 00:00:00 | 00:00:00 | |
| PETON7-10 | 2026-09-02 00:38:12 | 46.11660 | 15.34856 | 103° | 29km/h | 19485m | 5.0m/s | 0°C | 0% | 0hPa | 0V | 00:00:00 | 00:00:00 | 00:00:00 | |
| 9A1FER-3 | 2026-09-02 00:38:07 | 46.11677 | 15.34818 | 131° | 31km/h | 19459m | 5.6m/s | 0°C | 0% | 0hPa | 0V | 00:00:00 | 00:00:00 | 00:00:00 | |
| 9A1FER-10 | 2026-09-02 00:37:57 | 46.11697 | 15.34722 | 108° | 33km/h | 19406m | 5.4m/s | 0°C | 0% | 0hPa | 0V | 00:00:00 | 00:00:00 | 00:00:00 | |
| PETON7-10 | 2026-09-02 00:37:55 | 46.11703 | 15.34698 | 111° | 37km/h | 19397m | 5.3m/s | 0°C | 0% | 0hPa | 0V | 00:00:00 | 00:00:00 | 00:00:00 | |
| 9A1FER-3 | 2026-09-02 00:37:52 | 46.11711 | 15.34662 | 101° | 33km/h | 19381m | 6.2m/s | 0°C | 0% | 0hPa | 0V | 00:00:00 | 00:00:00 | 00:00:00 | |
| 9A1FER-10 | 2026-09-02 00:37:40 | 46.11745 | 15.34526 | 109° | 37km/h | 19318m | 5.6m/s | 0°C | 0% | 0hPa | 0V | 00:00:00 | 00:00:00 | 00:00:00 | |
| 9A1FER-3 | 2026-09-02 00:37:37 | 46.11753 | 15.34492 | 105° | 37km/h | 19302m | 6.9m/s | 0°C | 0% | 0hPa | 0V | 00:00:00 | 00:00:00 | 00:00:00 | |
| PETON7-10 | 2026-09-02 00:37:34 | 46.11762 | 15.34453 | 112° | 35km/h | 19285m | 4.5m/s | 0°C | 0% | 0hPa | 0V | 00:00:00 | 00:00:00 | 00:00:00 | |
| 9A1FER-10 | 2026-09-02 00:37:25 | 46.11773 | 15.34337 | 89° | 29km/h | 19236m | 4.9m/s | 0°C | 0% | 0hPa | 0V | 00:00:00 | 00:00:00 | 00:00:00 | |
| 9A1FER-3 | 2026-09-02 00:37:22 | 46.11773 | 15.34300 | 94° | 27km/h | 19220m | 5.0m/s | 0°C | 0% | 0hPa | 0V | 00:00:00 | 00:00:00 | 00:00:00 | |
| PETON7-10 | 2026-09-02 00:37:19 | 46.11776 | 15.34272 | 100° | 29km/h | 19205m | 4.5m/s | 0°C | 0% | 0hPa | 0V | 00:00:00 | 00:00:00 | 00:00:00 | |
| 9A1FER-10 | 2026-09-02 00:37:10 | 46.11770 | 15.34178 | 112° | 26km/h | 19157m | 5.4m/s | 0°C | 0% | 0hPa | 0V | 00:00:00 | 00:00:00 | 00:00:00 | |
| 9A1FER-3 | 2026-09-02 00:37:07 | 46.11775 | 15.34150 | 92° | 26km/h | 19141m | 3.5m/s | 0°C | 0% | 0hPa | 0V | 00:00:00 | 00:00:00 | 00:00:00 | |
| PETON7-10 | 2026-09-02 00:37:04 | 46.11770 | 15.34118 | 74° | 22km/h | 19127m | 4.6m/s | 0°C | 0% | 0hPa | 0V | 00:00:00 | 00:00:00 | 00:00:00 | |
| 9A1FER-10 | 2026-09-02 00:36:55 | 46.11770 | 15.34041 | 92° | 20km/h | 19079m | 5.9m/s | 0°C | 0% | 0hPa | 0V | 00:00:00 | 00:00:00 | 00:00:00 | |
| 9A1FER-3 | 2026-09-02 00:36:52 | 46.11770 | 15.34016 | 91° | 20km/h | 19064m | 4.4m/s | 0°C | 0% | 0hPa | 0V | 00:00:00 | 00:00:00 | 00:00:00 | |
| PETON7-10 | 2026-09-02 00:36:49 | 46.11769 | 15.33997 | 92° | 22km/h | 19048m | 6.0m/s | 0°C | 0% | 0hPa | 0V | 00:00:00 | 00:00:00 | 00:00:00 | |
| 9A1FER-10 | 2026-09-02 00:36:40 | 46.11759 | 15.33931 | 66° | 20km/h | 19002m | 5.0m/s | 0°C | 0% | 0hPa | 0V | 00:00:00 | 00:00:00 | 00:00:00 | |
| 9A1FER-3 | 2026-09-02 00:36:37 | 46.11756 | 15.33910 | 83° | 18km/h | 18987m | 4.7m/s | 0°C | 0% | 0hPa | 0V | 00:00:00 | 00:00:00 | 00:00:00 | |
| PETON7-10 | 2026-09-02 00:36:34 | 46.11749 | 15.33888 | 57° | 16km/h | 18970m | 6.5m/s | 0°C | 0% | 0hPa | 0V | 00:00:00 | 00:00:00 | 00:00:00 | |
| 9A1FER-10 | 2026-09-02 00:36:25 | 46.11728 | 15.33839 | 83° | 13km/h | 18923m | 6.7m/s | 0°C | 0% | 0hPa | 0V | 00:00:00 | 00:00:00 | 00:00:00 | |
| 9A1FER-3 | 2026-09-02 00:36:22 | 46.11725 | 15.33825 | 44° | 11km/h | 18908m | 5.6m/s | 0°C | 0% | 0hPa | 0V | 00:00:00 | 00:00:00 | 00:00:00 | |
| PETON7-10 | 2026-09-02 00:36:19 | 46.11723 | 15.33819 | 77° | 15km/h | 18892m | 4.7m/s | 0°C | 0% | 0hPa | 0V | 00:00:00 | 00:00:00 | 00:00:00 | |
| 9A1FER-3 | 2026-09-02 00:36:07 | 46.11715 | 15.33769 | 116° | 16km/h | 18832m | 5.3m/s | 0°C | 0% | 0hPa | 0V | 00:00:00 | 00:00:00 | 00:00:00 | |
| PETON7-10 | 2026-09-02 00:36:01 | 46.11714 | 15.33729 | 81° | 24km/h | 18802m | 5.7m/s | 0°C | 0% | 0hPa | 0V | 00:00:00 | 00:00:00 | 00:00:00 | |
| 9A1FER-10 | 2026-09-02 00:35:53 | 46.11716 | 15.33682 | 99° | 29km/h | 18760m | 5.8m/s | 0°C | 0% | 0hPa | 0V | 00:00:00 | 00:00:00 | 00:00:00 | |
| 9A1FER-3 | 2026-09-02 00:35:52 | 46.11718 | 15.33670 | 104° | 29km/h | 18754m | 6.5m/s | 0°C | 0% | 0hPa | 0V | 00:00:00 | 00:00:00 | 00:00:00 | |
| PETON7-10 | 2026-09-02 00:35:45 | 46.11721 | 15.33601 | 95° | 33km/h | 18714m | 5.7m/s | 0°C | 0% | 0hPa | 0V | 00:00:00 | 00:00:00 | 00:00:00 | |
| 9A1FER-10 | 2026-09-02 00:35:38 | 46.11726 | 15.33525 | 79° | 38km/h | 18679m | 3.8m/s | 0°C | 0% | 0hPa | 0V | 00:00:00 | 00:00:00 | 00:00:00 | |
| 9A1FER-3 | 2026-09-02 00:35:36 | 46.11724 | 15.33503 | 88° | 38km/h | 18670m | 4.3m/s | 0°C | 0% | 0hPa | 0V | 00:00:00 | 00:00:00 | 00:00:00 | |
| PETON7-10 | 2026-09-02 00:35:30 | 46.11728 | 15.33424 | 97° | 40km/h | 18641m | 4.9m/s | 0°C | 0% | 0hPa | 0V | 00:00:00 | 00:00:00 | 00:00:00 | |
| 9A1FER-10 | 2026-09-02 00:35:21 | 46.11730 | 15.33298 | 97° | 46km/h | 18594m | 3.8m/s | 0°C | 0% | 0hPa | 0V | 00:00:00 | 00:00:00 | 00:00:00 | |
| PETON7-10 | 2026-09-02 00:35:15 | 46.11724 | 15.33201 | 79° | 47km/h | 18563m | 4.0m/s | 0°C | 0% | 0hPa | 0V | 00:00:00 | 00:00:00 | 00:00:00 | |
| 9A1FER-3 | 2026-09-02 00:35:06 | 46.11718 | 15.33047 | 78° | 49km/h | 18519m | 3.9m/s | 0°C | 0% | 0hPa | 0V | 00:00:00 | 00:00:00 | 00:00:00 | |
| PETON7-10 | 2026-09-02 00:35:00 | 46.11707 | 15.32942 | 92° | 51km/h | 18491m | 4.9m/s | 0°C | 0% | 0hPa | 0V | 00:00:00 | 00:00:00 | 00:00:00 | |
| 9A1FER-10 | 2026-09-02 00:34:51 | 46.11684 | 15.32786 | 76° | 51km/h | 18452m | 4.8m/s | 0°C | 0% | 0hPa | 0V | 00:00:00 | 00:00:00 | 00:00:00 | |
| PETON7-10 | 2026-09-02 00:34:47 | 46.11669 | 15.32674 | 68° | 49km/h | 18422m | 5.8m/s | 0°C | 0% | 0hPa | 0V | 00:00:00 | 00:00:00 | 00:00:00 | |
| 9A1FER-10 | 2026-09-02 00:34:36 | 46.11633 | 15.32522 | 84° | 46km/h | 18380m | 5.3m/s | 0°C | 0% | 0hPa | 0V | 00:00:00 | 00:00:00 | 00:00:00 | |
| PETON7-10 | 2026-09-02 00:34:30 | 46.11603 | 15.32429 | 62° | 44km/h | 18351m | 4.2m/s | 0°C | 0% | 0hPa | 0V | 00:00:00 | 00:00:00 | 00:00:00 | |
| PETON7-10 | 2026-09-02 00:34:13 | 46.11551 | 15.32170 | 81° | 35km/h | 18269m | 3.7m/s | 0°C | 0% | 0hPa | 0V | 00:00:00 | 00:00:00 | 00:00:00 | |
| 9A1FER-3 | 2026-09-02 00:34:06 | 46.11537 | 15.32080 | 82° | 31km/h | 18234m | 5.8m/s | 0°C | 0% | 0hPa | 0V | 00:00:00 | 00:00:00 | 00:00:00 | |
| 9A1FER-10 | 2026-09-02 00:34:05 | 46.11536 | 15.32069 | 81° | 31km/h | 18229m | 4.7m/s | 0°C | 0% | 0hPa | 0V | 00:00:00 | 00:00:00 | 00:00:00 | |
| PETON7-10 | 2026-09-02 00:33:57 | 46.11526 | 15.31973 | 86° | 26km/h | 18186m | 3.9m/s | 0°C | 0% | 0hPa | 0V | 00:00:00 | 00:00:00 | 00:00:00 | |
| 9A1FER-3 | 2026-09-02 00:33:51 | 46.11517 | 15.31916 | 82° | 24km/h | 18158m | 3.2m/s | 0°C | 0% | 0hPa | 0V | 00:00:00 | 00:00:00 | 00:00:00 | |
| 9A1FER-10 | 2026-09-02 00:33:50 | 46.11516 | 15.31906 | 86° | 24km/h | 18154m | 6.1m/s | 0°C | 0% | 0hPa | 0V | 00:00:00 | 00:00:00 | 00:00:00 | |
| PETON7-10 | 2026-09-02 00:33:42 | 46.11513 | 15.31838 | 65° | 20km/h | 18116m | 3.3m/s | 0°C | 0% | 0hPa | 0V | 00:00:00 | 00:00:00 | 00:00:00 | |
| 9A1FER-3 | 2026-09-02 00:33:37 | 46.11512 | 15.31787 | 112° | 16km/h | 18087m | 5.6m/s | 0°C | 0% | 0hPa | 0V | 00:00:00 | 00:00:00 | 00:00:00 | |
| 9A1FER-10 | 2026-09-02 00:33:35 | 46.11514 | 15.31781 | 118° | 16km/h | 18083m | 3.4m/s | 0°C | 0% | 0hPa | 0V | 00:00:00 | 00:00:00 | 00:00:00 | |
| PETON7-10 | 2026-09-02 00:33:27 | 46.11518 | 15.31735 | 119° | 20km/h | 18044m | 3.6m/s | 0°C | 0% | 0hPa | 0V | 00:00:00 | 00:00:00 | 00:00:00 | |
| 9A1FER-3 | 2026-09-02 00:33:21 | 46.11532 | 15.31711 | 105° | 20km/h | 18016m | 4.9m/s | 0°C | 0% | 0hPa | 0V | 00:00:00 | 00:00:00 | 00:00:00 | |
| 9A1FER-10 | 2026-09-02 00:33:20 | 46.11534 | 15.31707 | 123° | 22km/h | 18011m | 4.8m/s | 0°C | 0% | 0hPa | 0V | 00:00:00 | 00:00:00 | 00:00:00 | |
| PETON7-10 | 2026-09-02 00:33:12 | 46.11563 | 15.31662 | 120° | 26km/h | 17974m | 3.3m/s | 0°C | 0% | 0hPa | 0V | 00:00:00 | 00:00:00 | 00:00:00 | |
| 9A1FER-10 | 2026-09-02 00:33:06 | 46.11587 | 15.31616 | 136° | 27km/h | 17941m | 5.9m/s | 0°C | 0% | 0hPa | 0V | 00:00:00 | 00:00:00 | 00:00:00 | |
| OM5KV | 2026-09-02 00:33:02 | 46.11600 | 15.31597 | 131° | 26km/h | 17927m | 3.0m/s | 0°C | 0% | 0hPa | 0V | 00:00:00 | 00:00:00 | 00:00:00 | |
| PETON7-10 | 2026-09-02 00:32:57 | 46.11625 | 15.31557 | 125° | 27km/h | 17903m | 3.7m/s | 0°C | 0% | 0hPa | 0V | 00:00:00 | 00:00:00 | 00:00:00 | |
| OM5KV | 2026-09-02 00:32:56 | 46.11630 | 15.31548 | 134° | 33km/h | 17898m | 5.2m/s | 0°C | 0% | 0hPa | 0V | 00:00:00 | 00:00:00 | 00:00:00 | |
| 9A1FER-3 | 2026-09-02 00:32:51 | 46.11656 | 15.31510 | 137° | 26km/h | 17875m | 4.8m/s | 0°C | 0% | 0hPa | 0V | 00:00:00 | 00:00:00 | 00:00:00 | |
| 9A1FER-10 | 2026-09-02 00:32:50 | 46.11661 | 15.31503 | 138° | 26km/h | 17871m | 3.7m/s | 0°C | 0% | 0hPa | 0V | 00:00:00 | 00:00:00 | 00:00:00 | |
| PETON7-10 | 2026-09-02 00:32:42 | 46.11696 | 15.31450 | 141° | 29km/h | 17830m | 5.1m/s | 0°C | 0% | 0hPa | 0V | 00:00:00 | 00:00:00 | 00:00:00 | |
| OM5KV | 2026-09-02 00:32:41 | 46.11707 | 15.31436 | 134° | 27km/h | 17821m | 5.8m/s | 0°C | 0% | 0hPa | 0V | 00:00:00 | 00:00:00 | 00:00:00 | |
| 9A1FER-3 | 2026-09-02 00:32:36 | 46.11725 | 15.31408 | 129° | 33km/h | 17800m | 6.2m/s | 0°C | 0% | 0hPa | 0V | 00:00:00 | 00:00:00 | 00:00:00 | |
| 9A1FER-10 | 2026-09-02 00:32:35 | 46.11729 | 15.31400 | 124° | 33km/h | 17794m | 5.6m/s | 0°C | 0% | 0hPa | 0V | 00:00:00 | 00:00:00 | 00:00:00 | |
| OM5KV | 2026-09-02 00:32:34 | 46.11733 | 15.31391 | 129° | 31km/h | 17789m | 5.4m/s | 0°C | 0% | 0hPa | 0V | 00:00:00 | 00:00:00 | 00:00:00 | |
| OM5KV | 2026-09-02 00:32:28 | 46.11762 | 15.31334 | 124° | 31km/h | 17759m | 5.5m/s | 0°C | 0% | 0hPa | 0V | 00:00:00 | 00:00:00 | 00:00:00 | |
| PETON7-10 | 2026-09-02 00:32:27 | 46.11766 | 15.31324 | 124° | 38km/h | 17754m | 5.4m/s | 0°C | 0% | 0hPa | 0V | 00:00:00 | 00:00:00 | 00:00:00 | |
| OM5KV | 2026-09-02 00:32:22 | 46.11789 | 15.31272 | 126° | 33km/h | 17728m | 5.4m/s | 0°C | 0% | 0hPa | 0V | 00:00:00 | 00:00:00 | 00:00:00 | |
| 9A1FER-3 | 2026-09-02 00:32:21 | 46.11793 | 15.31261 | 115° | 38km/h | 17723m | 5.1m/s | 0°C | 0% | 0hPa | 0V | 00:00:00 | 00:00:00 | 00:00:00 | |
| 9A1FER-10 | 2026-09-02 00:32:20 | 46.11797 | 15.31250 | 111° | 40km/h | 17717m | 4.9m/s | 0°C | 0% | 0hPa | 0V | 00:00:00 | 00:00:00 | 00:00:00 | |
| OM5KV | 2026-09-02 00:32:16 | 46.11808 | 15.31200 | 105° | 46km/h | 17696m | 4.1m/s | 0°C | 0% | 0hPa | 0V | 00:00:00 | 00:00:00 | 00:00:00 | |
| OM5KV | 2026-09-02 00:32:14 | 46.11816 | 15.31167 | 116° | 47km/h | 17687m | 5.4m/s | 0°C | 0% | 0hPa | 0V | 00:00:00 | 00:00:00 | 00:00:00 | |
| PETON7-10 | 2026-09-02 00:32:12 | 46.11826 | 15.31138 | 115° | 44km/h | 17677m | 5.7m/s | 0°C | 0% | 0hPa | 0V | 00:00:00 | 00:00:00 | 00:00:00 | |
| OM5KV | 2026-09-02 00:32:10 | 46.11833 | 15.31112 | 113° | 37km/h | 17667m | 5.3m/s | 0°C | 0% | 0hPa | 0V | 00:00:00 | 00:00:00 | 00:00:00 | |
| 9A1FER-3 | 2026-09-02 00:32:06 | 46.11845 | 15.31062 | 100° | 49km/h | 17648m | 5.0m/s | 0°C | 0% | 0hPa | 0V | 00:00:00 | 00:00:00 | 00:00:00 | |
| 9A1FER-10 | 2026-09-02 00:32:05 | 46.11847 | 15.31047 | 106° | 49km/h | 17643m | 3.9m/s | 0°C | 0% | 0hPa | 0V | 00:00:00 | 00:00:00 | 00:00:00 | |
| OM5KV | 2026-09-02 00:32:04 | 46.11851 | 15.31030 | 114° | 49km/h | 17638m | 6.3m/s | 0°C | 0% | 0hPa | 0V | 00:00:00 | 00:00:00 | 00:00:00 | |
| OM5KV | 2026-09-02 00:32:03 | 46.11856 | 15.31014 | 118° | 53km/h | 17633m | 4.2m/s | 0°C | 0% | 0hPa | 0V | 00:00:00 | 00:00:00 | 00:00:00 | |
| OM5KV | 2026-09-02 00:31:58 | 46.11877 | 15.30929 | 107° | 44km/h | 17610m | 5.2m/s | 0°C | 0% | 0hPa | 0V | 00:00:00 | 00:00:00 | 00:00:00 | |
| PETON7-10 | 2026-09-02 00:31:57 | 46.11879 | 15.30914 | 104° | 55km/h | 17605m | 4.3m/s | 0°C | 0% | 0hPa | 0V | 00:00:00 | 00:00:00 | 00:00:00 | |
| OM5KV | 2026-09-02 00:31:53 | 46.11894 | 15.30840 | 112° | 57km/h | 17586m | 3.8m/s | 0°C | 0% | 0hPa | 0V | 00:00:00 | 00:00:00 | 00:00:00 | |
| OM5KV | 2026-09-02 00:31:52 | 46.11898 | 15.30821 | 110° | 53km/h | 17581m | 6.3m/s | 0°C | 0% | 0hPa | 0V | 00:00:00 | 00:00:00 | 00:00:00 | |
| 9A1FER-3 | 2026-09-02 00:31:51 | 46.11902 | 15.30804 | 106° | 55km/h | 17576m | 4.4m/s | 0°C | 0% | 0hPa | 0V | 00:00:00 | 00:00:00 | 00:00:00 | |
| 9A1FER-10 | 2026-09-02 00:31:50 | 46.11905 | 15.30787 | 105° | 55km/h | 17571m | 5.0m/s | 0°C | 0% | 0hPa | 0V | 00:00:00 | 00:00:00 | 00:00:00 | |
| OM5KV | 2026-09-02 00:31:48 | 46.11911 | 15.30754 | 103° | 47km/h | 17562m | 3.7m/s | 0°C | 0% | 0hPa | 0V | 00:00:00 | 00:00:00 | 00:00:00 | |
| OM5KV | 2026-09-02 00:31:46 | 46.11914 | 15.30717 | 94° | 55km/h | 17551m | 5.3m/s | 0°C | 0% | 0hPa | 0V | 00:00:00 | 00:00:00 | 00:00:00 | |
| OM5KV | 2026-09-02 00:31:42 | 46.11922 | 15.30630 | 96° | 64km/h | 17531m | 6.2m/s | 0°C | 0% | 0hPa | 0V | 00:00:00 | 00:00:00 | 00:00:00 | |
| PETON7-10 | 2026-09-02 00:31:41 | 46.11923 | 15.30608 | 93° | 55km/h | 17525m | 4.9m/s | 0°C | 0% | 0hPa | 0V | 00:00:00 | 00:00:00 | 00:00:00 | |
| OM5KV | 2026-09-02 00:31:37 | 46.11924 | 15.30529 | 86° | 55km/h | 17504m | 4.4m/s | 0°C | 0% | 0hPa | 0V | 00:00:00 | 00:00:00 | 00:00:00 | |
| 9A1FER-3 | 2026-09-02 00:31:36 | 46.11923 | 15.30509 | 87° | 53km/h | 17499m | 5.5m/s | 0°C | 0% | 0hPa | 0V | 00:00:00 | 00:00:00 | 00:00:00 | |
| 9A1FER-10 | 2026-09-02 00:31:35 | 46.11923 | 15.30489 | 90° | 53km/h | 17494m | 4.9m/s | 0°C | 0% | 0hPa | 0V | 00:00:00 | 00:00:00 | 00:00:00 | |
| OM5KV | 2026-09-02 00:31:31 | 46.11922 | 15.30406 | 95° | 55km/h | 17476m | 6.2m/s | 0°C | 0% | 0hPa | 0V | 00:00:00 | 00:00:00 | 00:00:00 | |
| OM5KV | 2026-09-02 00:31:30 | 46.11923 | 15.30386 | 101° | 55km/h | 17471m | 4.7m/s | 0°C | 0% | 0hPa | 0V | 00:00:00 | 00:00:00 | 00:00:00 | |
| PETON7-10 | 2026-09-02 00:31:26 | 46.11927 | 15.30311 | 87° | 51km/h | 17451m | 5.8m/s | 0°C | 0% | 0hPa | 0V | 00:00:00 | 00:00:00 | 00:00:00 | |
| OM5KV | 2026-09-02 00:31:24 | 46.11924 | 15.30279 | 78° | 46km/h | 17442m | 5.2m/s | 0°C | 0% | 0hPa | 0V | 00:00:00 | 00:00:00 | 00:00:00 | |
| 9A1FER-3 | 2026-09-02 00:31:21 | 46.11916 | 15.30222 | 86° | 51km/h | 17427m | 5.3m/s | 0°C | 0% | 0hPa | 0V | 00:00:00 | 00:00:00 | 00:00:00 | |
| 9A1FER-10 | 2026-09-02 00:31:20 | 46.11916 | 15.30203 | 92° | 49km/h | 17423m | 4.2m/s | 0°C | 0% | 0hPa | 0V | 00:00:00 | 00:00:00 | 00:00:00 | |
| OM5KV | 2026-09-02 00:31:19 | 46.11917 | 15.30185 | 95° | 49km/h | 17418m | 5.3m/s | 0°C | 0% | 0hPa | 0V | 00:00:00 | 00:00:00 | 00:00:00 | |
| OM5KV | 2026-09-02 00:31:15 | 46.11914 | 15.30117 | 80° | 44km/h | 17399m | 4.1m/s | 0°C | 0% | 0hPa | 0V | 00:00:00 | 00:00:00 | 00:00:00 | |
| OM5KV | 2026-09-02 00:31:13 | 46.11908 | 15.30084 | 74° | 53km/h | 17390m | 5.2m/s | 0°C | 0% | 0hPa | 0V | 00:00:00 | 00:00:00 | 00:00:00 | |
| PETON7-10 | 2026-09-02 00:31:10 | 46.11900 | 15.30025 | 87° | 51km/h | 17376m | 4.9m/s | 0°C | 0% | 0hPa | 0V | 00:00:00 | 00:00:00 | 00:00:00 | |
| OM5KV | 2026-09-02 00:31:09 | 46.11899 | 15.30006 | 90° | 51km/h | 17371m | 5.5m/s | 0°C | 0% | 0hPa | 0V | 00:00:00 | 00:00:00 | 00:00:00 | |
| OM5KV | 2026-09-02 00:31:08 | 46.11899 | 15.29987 | 90° | 53km/h | 17366m | 4.4m/s | 0°C | 0% | 0hPa | 0V | 00:00:00 | 00:00:00 | 00:00:00 | |
| 9A1FER-10 | 2026-09-02 00:31:06 | 46.11900 | 15.29935 | 90° | 49km/h | 17352m | 4.7m/s | 0°C | 0% | 0hPa | 0V | 00:00:00 | 00:00:00 | 00:00:00 | |
| OM5KV | 2026-09-02 00:31:02 | 46.11894 | 15.29884 | 78° | 47km/h | 17338m | 5.9m/s | 0°C | 0% | 0hPa | 0V | 00:00:00 | 00:00:00 | 00:00:00 | |
| OM5KV | 2026-09-02 00:30:57 | 46.11886 | 15.29795 | 91° | 49km/h | 17315m | 6.3m/s | 0°C | 0% | 0hPa | 0V | 00:00:00 | 00:00:00 | 00:00:00 | |
| OM5KV | 2026-09-02 00:30:56 | 46.11886 | 15.29778 | 92° | 49km/h | 17310m | 3.4m/s | 0°C | 0% | 0hPa | 0V | 00:00:00 | 00:00:00 | 00:00:00 | |
| PETON7-10 | 2026-09-02 00:30:54 | 46.11886 | 15.29741 | 86° | 49km/h | 17301m | 4.9m/s | 0°C | 0% | 0hPa | 0V | 00:00:00 | 00:00:00 | 00:00:00 | |
| 9A1FER-3 | 2026-09-02 00:30:51 | 46.11880 | 15.29688 | 79° | 47km/h | 17287m | 2.5m/s | 0°C | 0% | 0hPa | 0V | 00:00:00 | 00:00:00 | 00:00:00 | |
| 9A1FER-10 | 2026-09-02 00:30:50 | 46.11877 | 15.29671 | 76° | 47km/h | 17283m | 5.0m/s | 0°C | 0% | 0hPa | 0V | 00:00:00 | 00:00:00 | 00:00:00 | |
| OM5KV | 2026-09-02 00:30:44 | 46.11868 | 15.29571 | 85° | 47km/h | 17256m | 5.3m/s | 0°C | 0% | 0hPa | 0V | 00:00:00 | 00:00:00 | 00:00:00 | |
| OM5KV | 2026-09-02 00:30:40 | 46.11861 | 15.29501 | 74° | 53km/h | 17238m | 4.3m/s | 0°C | 0% | 0hPa | 0V | 00:00:00 | 00:00:00 | 00:00:00 | |
| OM5KV | 2026-09-02 00:30:39 | 46.11858 | 15.29483 | 73° | 49km/h | 17233m | 5.5m/s | 0°C | 0% | 0hPa | 0V | 00:00:00 | 00:00:00 | 00:00:00 | |
| 9A1FER-10 | 2026-09-02 00:30:36 | 46.11846 | 15.29419 | 83° | 47km/h | 17217m | 2.9m/s | 0°C | 0% | 0hPa | 0V | 00:00:00 | 00:00:00 | 00:00:00 | |
| OM5KV | 2026-09-02 00:30:34 | 46.11845 | 15.29403 | 90° | 44km/h | 17213m | 5.3m/s | 0°C | 0% | 0hPa | 0V | 00:00:00 | 00:00:00 | 00:00:00 | |
| OM5KV | 2026-09-02 00:30:29 | 46.11838 | 15.29315 | 75° | 51km/h | 17192m | 6.3m/s | 0°C | 0% | 0hPa | 0V | 00:00:00 | 00:00:00 | 00:00:00 | |
| OM5KV | 2026-09-02 00:30:23 | 46.11819 | 15.29214 | 88° | 46km/h | 17164m | 3.7m/s | 0°C | 0% | 0hPa | 0V | 00:00:00 | 00:00:00 | 00:00:00 | |
| 9A1FER-3 | 2026-09-02 00:30:21 | 46.11818 | 15.29179 | 82° | 49km/h | 17155m | 3.9m/s | 0°C | 0% | 0hPa | 0V | 00:00:00 | 00:00:00 | 00:00:00 | |
| 9A1FER-10 | 2026-09-02 00:30:20 | 46.11815 | 15.29161 | 78° | 49km/h | 17150m | 5.7m/s | 0°C | 0% | 0hPa | 0V | 00:00:00 | 00:00:00 | 00:00:00 | |
| OM5KV | 2026-09-02 00:30:18 | 46.11803 | 15.29114 | 68° | 51km/h | 17136m | 4.9m/s | 0°C | 0% | 0hPa | 0V | 00:00:00 | 00:00:00 | 00:00:00 | |
| OM5KV | 2026-09-02 00:30:11 | 46.11788 | 15.29010 | 86° | 49km/h | 17109m | 5.7m/s | 0°C | 0% | 0hPa | 0V | 00:00:00 | 00:00:00 | 00:00:00 | |
| 9A1FER-3 | 2026-09-02 00:30:06 | 46.11774 | 15.28917 | 78° | 47km/h | 17089m | 4.8m/s | 0°C | 0% | 0hPa | 0V | 00:00:00 | 00:00:00 | 00:00:00 | |
| 9A1FER-10 | 2026-09-02 00:30:05 | 46.11771 | 15.28899 | 82° | 46km/h | 17085m | 3.7m/s | 0°C | 0% | 0hPa | 0V | 00:00:00 | 00:00:00 | 00:00:00 | |
| OM5KV | 2026-09-02 00:30:00 | 46.11764 | 15.28816 | 80° | 42km/h | 17064m | 3.2m/s | 0°C | 0% | 0hPa | 0V | 00:00:00 | 00:00:00 | 00:00:00 | |
| OM5KV | 2026-09-02 00:29:55 | 46.11747 | 15.28730 | 80° | 44km/h | 17041m | 4.2m/s | 0°C | 0% | 0hPa | 0V | 00:00:00 | 00:00:00 | 00:00:00 | |
| 9A1FER-3 | 2026-09-02 00:29:51 | 46.11744 | 15.28666 | 90° | 46km/h | 17024m | 4.1m/s | 0°C | 0% | 0hPa | 0V | 00:00:00 | 00:00:00 | 00:00:00 | |
| OM5KV | 2026-09-02 00:29:50 | 46.11743 | 15.28651 | 83° | 38km/h | 17020m | 3.2m/s | 0°C | 0% | 0hPa | 0V | 00:00:00 | 00:00:00 | 00:00:00 | |
| OM5KV | 2026-09-02 00:29:38 | 46.11715 | 15.28460 | 76° | 47km/h | 16967m | 5.1m/s | 0°C | 0% | 0hPa | 0V | 00:00:00 | 00:00:00 | 00:00:00 | |
| 9A1FER-3 | 2026-09-02 00:29:36 | 46.11709 | 15.28422 | 79° | 57km/h | 16959m | 5.1m/s | 0°C | 0% | 0hPa | 0V | 00:00:00 | 00:00:00 | 00:00:00 | |
| 9A1FER-10 | 2026-09-02 00:29:35 | 46.11707 | 15.28403 | 84° | 57km/h | 16954m | 4.7m/s | 0°C | 0% | 0hPa | 0V | 00:00:00 | 00:00:00 | 00:00:00 | |
| OM5KV | 2026-09-02 00:29:33 | 46.11709 | 15.28347 | 99° | 58km/h | 16940m | 6.3m/s | 0°C | 0% | 0hPa | 0V | 00:00:00 | 00:00:00 | 00:00:00 | |
| 9A1FER-3 | 2026-09-02 00:29:21 | 46.11725 | 15.28114 | 98° | 62km/h | 16892m | 5.1m/s | 0°C | 0% | 0hPa | 0V | 00:00:00 | 00:00:00 | 00:00:00 | |
| 9A1FER-10 | 2026-09-02 00:29:20 | 46.11726 | 15.28093 | 93° | 62km/h | 16887m | 4.6m/s | 0°C | 0% | 0hPa | 0V | 00:00:00 | 00:00:00 | 00:00:00 | |
| 9A1FER-3 | 2026-09-02 00:29:06 | 46.11745 | 15.27780 | 90° | 62km/h | 16828m | 3.8m/s | 0°C | 0% | 0hPa | 0V | 00:00:00 | 00:00:00 | 00:00:00 | |
| PETON7-10 | 2026-09-02 00:29:05 | 46.11745 | 15.27756 | 92° | 58km/h | 16823m | 5.4m/s | 0°C | 0% | 0hPa | 0V | 00:00:00 | 00:00:00 | 00:00:00 | |
| 9A1FER-3 | 2026-09-02 00:28:51 | 46.11760 | 15.27450 | 93° | 49km/h | 16759m | 5.3m/s | 0°C | 0% | 0hPa | 0V | 00:00:00 | 00:00:00 | 00:00:00 | |
| 9A1FER-10 | 2026-09-02 00:28:50 | 46.11761 | 15.27434 | 97° | 49km/h | 16755m | 4.8m/s | 0°C | 0% | 0hPa | 0V | 00:00:00 | 00:00:00 | 00:00:00 | |
| PETON7-10 | 2026-09-02 00:28:49 | 46.11763 | 15.27417 | 101° | 51km/h | 16750m | 5.0m/s | 0°C | 0% | 0hPa | 0V | 00:00:00 | 00:00:00 | 00:00:00 | |
| 9A1FER-3 | 2026-09-02 00:28:36 | 46.11786 | 15.27190 | 102° | 51km/h | 16689m | 5.4m/s | 0°C | 0% | 0hPa | 0V | 00:00:00 | 00:00:00 | 00:00:00 | |
| PETON7-10 | 2026-09-02 00:28:31 | 46.11789 | 15.27097 | 92° | 51km/h | 16667m | 5.4m/s | 0°C | 0% | 0hPa | 0V | 00:00:00 | 00:00:00 | 00:00:00 | |
| 9A1FER-3 | 2026-09-02 00:28:21 | 46.11811 | 15.26914 | 101° | 55km/h | 16620m | 5.9m/s | 0°C | 0% | 0hPa | 0V | 00:00:00 | 00:00:00 | 00:00:00 | |
| 9A1FER-10 | 2026-09-02 00:28:20 | 46.11813 | 15.26895 | 99° | 55km/h | 16616m | 3.9m/s | 0°C | 0% | 0hPa | 0V | 00:00:00 | 00:00:00 | 00:00:00 | |
| 9A1FER-3 | 2026-09-02 00:28:06 | 46.11825 | 15.26619 | 88° | 60km/h | 16549m | 4.5m/s | 0°C | 0% | 0hPa | 0V | 00:00:00 | 00:00:00 | 00:00:00 | |
| 9A1FER-10 | 2026-09-02 00:28:05 | 46.11824 | 15.26598 | 89° | 60km/h | 16545m | 5.6m/s | 0°C | 0% | 0hPa | 0V | 00:00:00 | 00:00:00 | 00:00:00 | |
| PETON7-10 | 2026-09-02 00:28:03 | 46.11825 | 15.26555 | 93° | 62km/h | 16535m | 5.1m/s | 0°C | 0% | 0hPa | 0V | 00:00:00 | 00:00:00 | 00:00:00 | |
| 9A1FER-3 | 2026-09-02 00:27:51 | 46.11823 | 15.26289 | 93° | 66km/h | 16480m | 5.4m/s | 0°C | 0% | 0hPa | 0V | 00:00:00 | 00:00:00 | 00:00:00 | |
| 9A1FER-10 | 2026-09-02 00:27:50 | 46.11824 | 15.26264 | 94° | 66km/h | 16475m | 4.4m/s | 0°C | 0% | 0hPa | 0V | 00:00:00 | 00:00:00 | 00:00:00 | |
| PETON7-10 | 2026-09-02 00:27:45 | 46.11821 | 15.26136 | 85° | 64km/h | 16452m | 5.9m/s | 0°C | 0% | 0hPa | 0V | 00:00:00 | 00:00:00 | 00:00:00 | |
| 9A1FER-3 | 2026-09-02 00:27:36 | 46.11820 | 15.25930 | 87° | 62km/h | 16408m | 3.2m/s | 0°C | 0% | 0hPa | 0V | 00:00:00 | 00:00:00 | 00:00:00 | |
| 9A1FER-10 | 2026-09-02 00:27:35 | 46.11819 | 15.25907 | 83° | 62km/h | 16403m | 6.4m/s | 0°C | 0% | 0hPa | 0V | 00:00:00 | 00:00:00 | 00:00:00 | |
| PETON7-10 | 2026-09-02 00:27:28 | 46.11813 | 15.25757 | 92° | 64km/h | 16369m | 6.4m/s | 0°C | 0% | 0hPa | 0V | 00:00:00 | 00:00:00 | 00:00:00 | |
| 9A1FER-3 | 2026-09-02 00:27:21 | 46.11813 | 15.25589 | 91° | 68km/h | 16338m | 5.6m/s | 0°C | 0% | 0hPa | 0V | 00:00:00 | 00:00:00 | 00:00:00 | |
| 9A1FER-10 | 2026-09-02 00:27:20 | 46.11813 | 15.25565 | 90° | 68km/h | 16333m | 5.1m/s | 0°C | 0% | 0hPa | 0V | 00:00:00 | 00:00:00 | 00:00:00 | |
| 9A1FER-3 | 2026-09-02 00:27:06 | 46.11800 | 15.25226 | 85° | 66km/h | 16263m | 4.2m/s | 0°C | 0% | 0hPa | 0V | 00:00:00 | 00:00:00 | 00:00:00 | |
| 9A1FER-10 | 2026-09-02 00:27:05 | 46.11798 | 15.25201 | 85° | 66km/h | 16258m | 6.3m/s | 0°C | 0% | 0hPa | 0V | 00:00:00 | 00:00:00 | 00:00:00 | |
| 9A1FER-10 | 2026-09-02 00:26:50 | 46.11771 | 15.24849 | 83° | 64km/h | 16184m | 4.2m/s | 0°C | 0% | 0hPa | 0V | 00:00:00 | 00:00:00 | 00:00:00 | |
| 9A1FER-3 | 2026-09-02 00:26:36 | 46.11744 | 15.24524 | 84° | 64km/h | 16115m | 4.1m/s | 0°C | 0% | 0hPa | 0V | 00:00:00 | 00:00:00 | 00:00:00 | |
| 9A1FER-10 | 2026-09-02 00:26:35 | 46.11742 | 15.24500 | 88° | 64km/h | 16110m | 5.5m/s | 0°C | 0% | 0hPa | 0V | 00:00:00 | 00:00:00 | 00:00:00 | |
| 9A1FER-3 | 2026-09-02 00:26:21 | 46.11702 | 15.24180 | 75° | 62km/h | 16043m | 5.3m/s | 0°C | 0% | 0hPa | 0V | 00:00:00 | 00:00:00 | 00:00:00 | |
| 9A1FER-10 | 2026-09-02 00:26:20 | 46.11699 | 15.24158 | 80° | 62km/h | 16038m | 3.8m/s | 0°C | 0% | 0hPa | 0V | 00:00:00 | 00:00:00 | 00:00:00 | |
| 9A1FER-3 | 2026-09-02 00:26:06 | 46.11646 | 15.23851 | 74° | 64km/h | 15969m | 5.3m/s | 0°C | 0% | 0hPa | 0V | 00:00:00 | 00:00:00 | 00:00:00 | |
| 9A1FER-10 | 2026-09-02 00:26:05 | 46.11641 | 15.23828 | 74° | 64km/h | 15965m | 4.8m/s | 0°C | 0% | 0hPa | 0V | 00:00:00 | 00:00:00 | 00:00:00 | |
| PETON7-10 | 2026-09-02 00:26:02 | 46.11628 | 15.23761 | 72° | 64km/h | 15951m | 6.7m/s | 0°C | 0% | 0hPa | 0V | 00:00:00 | 00:00:00 | 00:00:00 | |
| 9A1FER-3 | 2026-09-02 00:25:51 | 46.11580 | 15.23513 | 76° | 66km/h | 15896m | 6.0m/s | 0°C | 0% | 0hPa | 0V | 00:00:00 | 00:00:00 | 00:00:00 | |
| 9A1FER-10 | 2026-09-02 00:25:50 | 46.11577 | 15.23491 | 78° | 66km/h | 15890m | 4.6m/s | 0°C | 0% | 0hPa | 0V | 00:00:00 | 00:00:00 | 00:00:00 | |
| PETON7-10 | 2026-09-02 00:25:45 | 46.11555 | 15.23375 | 81° | 68km/h | 15865m | 5.2m/s | 0°C | 0% | 0hPa | 0V | 00:00:00 | 00:00:00 | 00:00:00 | |
| 9A1FER-3 | 2026-09-02 00:25:36 | 46.11520 | 15.23165 | 76° | 69km/h | 15823m | 3.6m/s | 0°C | 0% | 0hPa | 0V | 00:00:00 | 00:00:00 | 00:00:00 | |
| 9A1FER-10 | 2026-09-02 00:25:35 | 46.11516 | 15.23142 | 77° | 69km/h | 15819m | 5.1m/s | 0°C | 0% | 0hPa | 0V | 00:00:00 | 00:00:00 | 00:00:00 | |
| 9A1FER-3 | 2026-09-02 00:25:21 | 46.11467 | 15.22793 | 87° | 71km/h | 15754m | 6.0m/s | 0°C | 0% | 0hPa | 0V | 00:00:00 | 00:00:00 | 00:00:00 | |
| 9A1FER-10 | 2026-09-02 00:25:20 | 46.11466 | 15.22769 | 84° | 71km/h | 15750m | 2.9m/s | 0°C | 0% | 0hPa | 0V | 00:00:00 | 00:00:00 | 00:00:00 | |
| 9A1FER-3 | 2026-09-02 00:25:06 | 46.11416 | 15.22413 | 81° | 73km/h | 15684m | 2.8m/s | 0°C | 0% | 0hPa | 0V | 00:00:00 | 00:00:00 | 00:00:00 | |
| 9A1FER-10 | 2026-09-02 00:25:05 | 46.11413 | 15.22387 | 79° | 73km/h | 15680m | 5.8m/s | 0°C | 0% | 0hPa | 0V | 00:00:00 | 00:00:00 | 00:00:00 | |
| 9A1FER-10 | 2026-09-02 00:24:50 | 46.11366 | 15.21994 | 83° | 68km/h | 15612m | 3.9m/s | 0°C | 0% | 0hPa | 0V | 00:00:00 | 00:00:00 | 00:00:00 | |
| 9A1FER-3 | 2026-09-02 00:24:36 | 46.11326 | 15.21653 | 83° | 66km/h | 15548m | 5.7m/s | 0°C | 0% | 0hPa | 0V | 00:00:00 | 00:00:00 | 00:00:00 | |
| 9A1FER-10 | 2026-09-02 00:24:35 | 46.11324 | 15.21631 | 83° | 68km/h | 15543m | 2.6m/s | 0°C | 0% | 0hPa | 0V | 00:00:00 | 00:00:00 | 00:00:00 | |
| 9A1FER-3 | 2026-09-02 00:24:21 | 46.11291 | 15.21295 | 80° | 69km/h | 15479m | 4.6m/s | 0°C | 0% | 0hPa | 0V | 00:00:00 | 00:00:00 | 00:00:00 | |
| 9A1FER-10 | 2026-09-02 00:24:20 | 46.11288 | 15.21270 | 80° | 71km/h | 15474m | 4.5m/s | 0°C | 0% | 0hPa | 0V | 00:00:00 | 00:00:00 | 00:00:00 | |
| 9A1FER-3 | 2026-09-02 00:24:06 | 46.11252 | 15.20915 | 87° | 73km/h | 15410m | 5.1m/s | 0°C | 0% | 0hPa | 0V | 00:00:00 | 00:00:00 | 00:00:00 | |
| 9A1FER-10 | 2026-09-02 00:24:05 | 46.11251 | 15.20889 | 88° | 73km/h | 15406m | 4.6m/s | 0°C | 0% | 0hPa | 0V | 00:00:00 | 00:00:00 | 00:00:00 | |
| 9A1FER-3 | 2026-09-02 00:23:51 | 46.11244 | 15.20513 | 82° | 73km/h | 15344m | 3.5m/s | 0°C | 0% | 0hPa | 0V | 00:00:00 | 00:00:00 | 00:00:00 | |
| 9A1FER-10 | 2026-09-02 00:23:50 | 46.11241 | 15.20486 | 84° | 71km/h | 15339m | 4.9m/s | 0°C | 0% | 0hPa | 0V | 00:00:00 | 00:00:00 | 00:00:00 | |
| 9A1FER-3 | 2026-09-02 00:23:36 | 46.11214 | 15.20122 | 83° | 68km/h | 15279m | 4.4m/s | 0°C | 0% | 0hPa | 0V | 00:00:00 | 00:00:00 | 00:00:00 | |
| 9A1FER-10 | 2026-09-02 00:23:35 | 46.11212 | 15.20097 | 85° | 68km/h | 15274m | 4.7m/s | 0°C | 0% | 0hPa | 0V | 00:00:00 | 00:00:00 | 00:00:00 | |
| 9A1FER-3 | 2026-09-02 00:23:21 | 46.11185 | 15.19757 | 84° | 64km/h | 15211m | 4.9m/s | 0°C | 0% | 0hPa | 0V | 00:00:00 | 00:00:00 | 00:00:00 | |
| 9A1FER-10 | 2026-09-02 00:23:20 | 46.11183 | 15.19734 | 85° | 64km/h | 15206m | 5.0m/s | 0°C | 0% | 0hPa | 0V | 00:00:00 | 00:00:00 | 00:00:00 | |
| 9A1FER-3 | 2026-09-02 00:23:06 | 46.11173 | 15.19406 | 86° | 69km/h | 15145m | 5.1m/s | 0°C | 0% | 0hPa | 0V | 00:00:00 | 00:00:00 | 00:00:00 | |
| 9A1FER-10 | 2026-09-02 00:23:05 | 46.11171 | 15.19383 | 86° | 69km/h | 15141m | 4.5m/s | 0°C | 0% | 0hPa | 0V | 00:00:00 | 00:00:00 | 00:00:00 | |
| 9A1FER-3 | 2026-09-02 00:22:51 | 46.11145 | 15.19031 | 84° | 75km/h | 15080m | 4.1m/s | 0°C | 0% | 0hPa | 0V | 00:00:00 | 00:00:00 | 00:00:00 | |
| 9A1FER-10 | 2026-09-02 00:22:50 | 46.11143 | 15.19005 | 82° | 75km/h | 15076m | 4.9m/s | 0°C | 0% | 0hPa | 0V | 00:00:00 | 00:00:00 | 00:00:00 | |
| 9A1FER-3 | 2026-09-02 00:22:36 | 46.11113 | 15.18627 | 85° | 77km/h | 15014m | 4.1m/s | 0°C | 0% | 0hPa | 0V | 00:00:00 | 00:00:00 | 00:00:00 | |
| 9A1FER-10 | 2026-09-02 00:22:35 | 46.11111 | 15.18600 | 83° | 78km/h | 15010m | 4.7m/s | 0°C | 0% | 0hPa | 0V | 00:00:00 | 00:00:00 | 00:00:00 | |
| 9A1FER-3 | 2026-09-02 00:22:21 | 46.11073 | 15.18208 | 79° | 84km/h | 14949m | 5.3m/s | 0°C | 0% | 0hPa | 0V | 00:00:00 | 00:00:00 | 00:00:00 | |
| 9A1FER-10 | 2026-09-02 00:22:20 | 46.11069 | 15.18179 | 78° | 84km/h | 14945m | 3.5m/s | 0°C | 0% | 0hPa | 0V | 00:00:00 | 00:00:00 | 00:00:00 | |
| 9A1FER-3 | 2026-09-02 00:22:06 | 46.11000 | 15.17768 | 77° | 82km/h | 14884m | 4.2m/s | 0°C | 0% | 0hPa | 0V | 00:00:00 | 00:00:00 | 00:00:00 | |
| 9A1FER-10 | 2026-09-02 00:22:05 | 46.10995 | 15.17740 | 75° | 82km/h | 14879m | 6.3m/s | 0°C | 0% | 0hPa | 0V | 00:00:00 | 00:00:00 | 00:00:00 | |
| 9A1FER-3 | 2026-09-02 00:21:51 | 46.10914 | 15.17336 | 72° | 78km/h | 14816m | 3.2m/s | 0°C | 0% | 0hPa | 0V | 00:00:00 | 00:00:00 | 00:00:00 | |
| 9A1FER-10 | 2026-09-02 00:21:50 | 46.10908 | 15.17308 | 71° | 78km/h | 14811m | 6.6m/s | 0°C | 0% | 0hPa | 0V | 00:00:00 | 00:00:00 | 00:00:00 | |
| 9A1FER-3 | 2026-09-02 00:21:36 | 46.10821 | 15.16930 | 72° | 77km/h | 14743m | 6.1m/s | 0°C | 0% | 0hPa | 0V | 00:00:00 | 00:00:00 | 00:00:00 | |
| 9A1FER-10 | 2026-09-02 00:21:35 | 46.10815 | 15.16903 | 73° | 77km/h | 14737m | 5.2m/s | 0°C | 0% | 0hPa | 0V | 00:00:00 | 00:00:00 | 00:00:00 | |
| 9A1FER-3 | 2026-09-02 00:21:21 | 46.10734 | 15.16534 | 73° | 71km/h | 14669m | 5.7m/s | 0°C | 0% | 0hPa | 0V | 00:00:00 | 00:00:00 | 00:00:00 | |
| 9A1FER-10 | 2026-09-02 00:21:20 | 46.10729 | 15.16509 | 72° | 71km/h | 14664m | 4.3m/s | 0°C | 0% | 0hPa | 0V | 00:00:00 | 00:00:00 | 00:00:00 | |
| 9A1FER-3 | 2026-09-02 00:21:06 | 46.10648 | 15.16162 | 73° | 73km/h | 14596m | 6.4m/s | 0°C | 0% | 0hPa | 0V | 00:00:00 | 00:00:00 | 00:00:00 | |
| 9A1FER-10 | 2026-09-02 00:21:05 | 46.10642 | 15.16137 | 75° | 73km/h | 14590m | 4.6m/s | 0°C | 0% | 0hPa | 0V | 00:00:00 | 00:00:00 | 00:00:00 | |
| 9A1FER-3 | 2026-09-02 00:20:51 | 46.10572 | 15.15784 | 75° | 68km/h | 14519m | 5.2m/s | 0°C | 0% | 0hPa | 0V | 00:00:00 | 00:00:00 | 00:00:00 | |
| 9A1FER-10 | 2026-09-02 00:20:50 | 46.10568 | 15.15759 | 78° | 68km/h | 14514m | 4.2m/s | 0°C | 0% | 0hPa | 0V | 00:00:00 | 00:00:00 | 00:00:00 | |
| 9A1FER-3 | 2026-09-02 00:20:35 | 46.10507 | 15.15406 | 79° | 68km/h | 14437m | 3.8m/s | 0°C | 0% | 0hPa | 0V | 00:00:00 | 00:00:00 | 00:00:00 | |
| 9A1FER-10 | 2026-09-02 00:20:20 | 46.10469 | 15.15041 | 84° | 68km/h | 14355m | 4.4m/s | 0°C | 0% | 0hPa | 0V | 00:00:00 | 00:00:00 | 00:00:00 | |
| 9A1FER-3 | 2026-09-02 00:20:05 | 46.10447 | 15.14671 | 88° | 73km/h | 14276m | 6.7m/s | 0°C | 0% | 0hPa | 0V | 00:00:00 | 00:00:00 | 00:00:00 | |
| 9A1FER-10 | 2026-09-02 00:19:50 | 46.10446 | 15.14270 | 91° | 84km/h | 14198m | 3.2m/s | 0°C | 0% | 0hPa | 0V | 00:00:00 | 00:00:00 | 00:00:00 | |
| 9A1FER-10 | 2026-09-02 00:19:35 | 46.10466 | 15.13810 | 96° | 93km/h | 14122m | 3.8m/s | 0°C | 0% | 0hPa | 0V | 00:00:00 | 00:00:00 | 00:00:00 | |
| 9A1FER-10 | 2026-09-02 00:19:20 | 46.10475 | 15.13303 | 87° | 93km/h | 14049m | 3.6m/s | 0°C | 0% | 0hPa | 0V | 00:00:00 | 00:00:00 | 00:00:00 | |
| 9A1FER-10 | 2026-09-02 00:19:05 | 46.10456 | 15.12795 | 85° | 97km/h | 13979m | 4.2m/s | 0°C | 0% | 0hPa | 0V | 00:00:00 | 00:00:00 | 00:00:00 | |
| 9A1FER-10 | 2026-09-02 00:18:50 | 46.10418 | 15.12270 | 85° | 99km/h | 13912m | 3.4m/s | 0°C | 0% | 0hPa | 0V | 00:00:00 | 00:00:00 | 00:00:00 | |
| 9A1FER-10 | 2026-09-02 00:18:35 | 46.10360 | 15.11740 | 79° | 93km/h | 13847m | 4.2m/s | 0°C | 0% | 0hPa | 0V | 00:00:00 | 00:00:00 | 00:00:00 | |
| 9A1FER-10 | 2026-09-02 00:18:20 | 46.10316 | 15.11239 | 85° | 97km/h | 13786m | 2.6m/s | 0°C | 0% | 0hPa | 0V | 00:00:00 | 00:00:00 | 00:00:00 | |
| 9A1FER-3 | 2026-09-02 00:18:05 | 46.10263 | 15.10716 | 81° | 97km/h | 13723m | 4.8m/s | 0°C | 0% | 0hPa | 0V | 00:00:00 | 00:00:00 | 00:00:00 | |
| 9A1FER-10 | 2026-09-02 00:17:50 | 46.10193 | 15.10196 | 75° | 97km/h | 13660m | 3.2m/s | 0°C | 0% | 0hPa | 0V | 00:00:00 | 00:00:00 | 00:00:00 | |
| 9A1FER-3 | 2026-09-02 00:17:49 | 46.10187 | 15.10163 | 74° | 97km/h | 13656m | 4.4m/s | 0°C | 0% | 0hPa | 0V | 00:00:00 | 00:00:00 | 00:00:00 | |
| 9A1FER-10 | 2026-09-02 00:17:35 | 46.10103 | 15.09685 | 76° | 99km/h | 13595m | 3.7m/s | 0°C | 0% | 0hPa | 0V | 00:00:00 | 00:00:00 | 00:00:00 | |
| 9A1FER-3 | 2026-09-02 00:17:34 | 46.10097 | 15.09651 | 76° | 99km/h | 13591m | 4.2m/s | 0°C | 0% | 0hPa | 0V | 00:00:00 | 00:00:00 | 00:00:00 | |
| 9A1FER-10 | 2026-09-02 00:17:20 | 46.10012 | 15.09160 | 77° | 97km/h | 13528m | 4.2m/s | 0°C | 0% | 0hPa | 0V | 00:00:00 | 00:00:00 | 00:00:00 | |
| 9A1FER-3 | 2026-09-02 00:17:19 | 46.10006 | 15.09125 | 76° | 97km/h | 13524m | 3.5m/s | 0°C | 0% | 0hPa | 0V | 00:00:00 | 00:00:00 | 00:00:00 | |
| 9A1FER-3 | 2026-09-02 00:17:04 | 46.09908 | 15.08621 | 75° | 93km/h | 13462m | 4.7m/s | 0°C | 0% | 0hPa | 0V | 00:00:00 | 00:00:00 | 00:00:00 | |
| 9A1FER-10 | 2026-09-02 00:16:50 | 46.09826 | 15.08162 | 75° | 93km/h | 13402m | 3.5m/s | 0°C | 0% | 0hPa | 0V | 00:00:00 | 00:00:00 | 00:00:00 | |
| 9A1FER-3 | 2026-09-02 00:16:49 | 46.09820 | 15.08130 | 76° | 95km/h | 13398m | 5.2m/s | 0°C | 0% | 0hPa | 0V | 00:00:00 | 00:00:00 | 00:00:00 | |
| OE3JTB-15 | 2026-09-02 00:16:38 | 46.09754 | 15.07659 | 81° | 97km/h | 13336m | 4.1m/s | 0°C | 0% | 0hPa | 0V | 00:00:00 | 00:00:00 | 00:00:00 | |
| 9A1FER-10 | 2026-09-02 00:16:35 | 46.09754 | 15.07659 | 81° | 95km/h | 13336m | 4.1m/s | 0°C | 0% | 0hPa | 0V | 00:00:00 | 00:00:00 | 00:00:00 | |
| 9A1FER-3 | 2026-09-02 00:16:34 | 46.09767 | 15.07625 | 81° | 95km/h | 13331m | 4.9m/s | 0°C | 0% | 0hPa | 0V | 00:00:00 | 00:00:00 | 00:00:00 | |
| 9A1FER-10 | 2026-09-02 00:16:20 | 46.09690 | 15.07145 | 81° | 99km/h | 13268m | 5.0m/s | 0°C | 0% | 0hPa | 0V | 00:00:00 | 00:00:00 | 00:00:00 | |
| 9A1FER-3 | 2026-09-02 00:16:19 | 46.09686 | 15.07110 | 80° | 99km/h | 13263m | 4.8m/s | 0°C | 0% | 0hPa | 0V | 00:00:00 | 00:00:00 | 00:00:00 | |
| OE3JTB-15 | 2026-09-02 00:16:09 | 46.09644 | 15.06751 | 86° | 66km/h | 13218m | 5.9m/s | 0°C | 0% | 0hPa | 0V | 00:00:00 | 00:00:00 | 00:00:00 | |
| 9A1FER-10 | 2026-09-02 00:16:05 | 46.09635 | 15.06611 | 82° | 97km/h | 13199m | 4.5m/s | 0°C | 0% | 0hPa | 0V | 00:00:00 | 00:00:00 | 00:00:00 | |
| 9A1FER-3 | 2026-09-02 00:16:04 | 46.09631 | 15.06576 | 81° | 97km/h | 13194m | 5.4m/s | 0°C | 0% | 0hPa | 0V | 00:00:00 | 00:00:00 | 00:00:00 | |
| 9A1FER-10 | 2026-09-02 00:15:50 | 46.09585 | 15.06091 | 83° | 93km/h | 13127m | 4.0m/s | 0°C | 0% | 0hPa | 0V | 00:00:00 | 00:00:00 | 00:00:00 | |
| 9A1FER-3 | 2026-09-02 00:15:49 | 46.09582 | 15.06057 | 84° | 93km/h | 13123m | 4.8m/s | 0°C | 0% | 0hPa | 0V | 00:00:00 | 00:00:00 | 00:00:00 | |
| 9A1FER-10 | 2026-09-02 00:15:35 | 46.09531 | 15.05593 | 83° | 89km/h | 13057m | 4.1m/s | 0°C | 0% | 0hPa | 0V | 00:00:00 | 00:00:00 | 00:00:00 | |
| 9A1FER-3 | 2026-09-02 00:15:34 | 46.09528 | 15.05560 | 83° | 89km/h | 13052m | 4.7m/s | 0°C | 0% | 0hPa | 0V | 00:00:00 | 00:00:00 | 00:00:00 | |
| 9A1FER-10 | 2026-09-02 00:15:20 | 46.09494 | 15.05108 | 89° | 89km/h | 12987m | 4.3m/s | 0°C | 0% | 0hPa | 0V | 00:00:00 | 00:00:00 | 00:00:00 | |
| 9A1FER-3 | 2026-09-02 00:15:19 | 46.09493 | 15.05074 | 88° | 91km/h | 12982m | 5.5m/s | 0°C | 0% | 0hPa | 0V | 00:00:00 | 00:00:00 | 00:00:00 | |
| 9A1FER-10 | 2026-09-02 00:15:05 | 46.09486 | 15.04621 | 91° | 97km/h | 12916m | 5.5m/s | 0°C | 0% | 0hPa | 0V | 00:00:00 | 00:00:00 | 00:00:00 | |
| 9A1FER-3 | 2026-09-02 00:15:04 | 46.09486 | 15.04586 | 89° | 99km/h | 12911m | 4.4m/s | 0°C | 0% | 0hPa | 0V | 00:00:00 | 00:00:00 | 00:00:00 | |
| 9A1FER-10 | 2026-09-02 00:14:50 | 46.09492 | 15.04088 | 93° | 104km/h | 12843m | 3.5m/s | 0°C | 0% | 0hPa | 0V | 00:00:00 | 00:00:00 | 00:00:00 | |
| 9A1FER-3 | 2026-09-02 00:14:49 | 46.09493 | 15.04051 | 92° | 108km/h | 12838m | 6.4m/s | 0°C | 0% | 0hPa | 0V | 00:00:00 | 00:00:00 | 00:00:00 | |
| 9A1FER-10 | 2026-09-02 00:14:35 | 46.09503 | 15.03523 | 91° | 110km/h | 12770m | 5.0m/s | 0°C | 0% | 0hPa | 0V | 00:00:00 | 00:00:00 | 00:00:00 | |
| 9A1FER-3 | 2026-09-02 00:14:25 | 46.09514 | 15.03124 | 92° | 108km/h | 12723m | 4.0m/s | 0°C | 0% | 0hPa | 0V | 00:00:00 | 00:00:00 | 00:00:00 | |
| 9A1FER-10 | 2026-09-02 00:14:20 | 46.09512 | 15.02925 | 88° | 110km/h | 12699m | 6.0m/s | 0°C | 0% | 0hPa | 0V | 00:00:00 | 00:00:00 | 00:00:00 | |
| 9A1FER-3 | 2026-09-02 00:14:10 | 46.09503 | 15.02533 | 87° | 108km/h | 12650m | 5.4m/s | 0°C | 0% | 0hPa | 0V | 00:00:00 | 00:00:00 | 00:00:00 | |
| 9A1FER-10 | 2026-09-02 00:14:05 | 46.09500 | 15.02332 | 91° | 106km/h | 12625m | 4.2m/s | 0°C | 0% | 0hPa | 0V | 00:00:00 | 00:00:00 | 00:00:00 | |
| 9A1FER-3 | 2026-09-02 00:13:55 | 46.09485 | 15.01946 | 83° | 102km/h | 12577m | 4.8m/s | 0°C | 0% | 0hPa | 0V | 00:00:00 | 00:00:00 | 00:00:00 | |
| 9A1FER-10 | 2026-09-02 00:13:50 | 46.09470 | 15.01759 | 84° | 100km/h | 12552m | 3.7m/s | 0°C | 0% | 0hPa | 0V | 00:00:00 | 00:00:00 | 00:00:00 | |
| 9A1FER-3 | 2026-09-02 00:13:40 | 46.09431 | 15.01397 | 82° | 99km/h | 12506m | 6.1m/s | 0°C | 0% | 0hPa | 0V | 00:00:00 | 00:00:00 | 00:00:00 | |
| 9A1FER-3 | 2026-09-02 00:13:25 | 46.09374 | 15.00873 | 78° | 95km/h | 12436m | 4.5m/s | 0°C | 0% | 0hPa | 0V | 00:00:00 | 00:00:00 | 00:00:00 | |
| 9A1FER-10 | 2026-09-02 00:13:20 | 46.09351 | 15.00722 | 86° | 97km/h | 12413m | 4.6m/s | 0°C | 0% | 0hPa | 0V | 00:00:00 | 00:00:00 | 00:00:00 | |
| 9A1FER-10 | 2026-09-02 00:13:05 | 46.09327 | 15.00202 | 88° | 95km/h | 12329m | 4.0m/s | 0°C | 0% | 0hPa | 0V | 00:00:00 | 00:00:00 | 00:00:00 | |
| 9A1FER-10 | 2026-09-02 00:12:50 | 46.09300 | 14.99684 | 85° | 95km/h | 12263m | 3.8m/s | 0°C | 0% | 0hPa | 0V | 00:00:00 | 00:00:00 | 00:00:00 | |
| 9A1FER-3 | 2026-09-02 00:12:48 | 46.09295 | 14.99615 | 83° | 95km/h | 12254m | 3.8m/s | 0°C | 0% | 0hPa | 0V | 00:00:00 | 00:00:00 | 00:00:00 | |
| 9A1FER-10 | 2026-09-02 00:12:35 | 46.09270 | 14.99168 | 86° | 95km/h | 12196m | 4.5m/s | 0°C | 0% | 0hPa | 0V | 00:00:00 | 00:00:00 | 00:00:00 | |
| 9A1FER-3 | 2026-09-02 00:12:33 | 46.09266 | 14.99117 | 85° | 95km/h | 12187m | 4.8m/s | 0°C | 0% | 0hPa | 0V | 00:00:00 | 00:00:00 | 00:00:00 | |
| 9A1FER-10 | 2026-09-02 00:12:21 | 46.09242 | 14.98652 | 86° | 95km/h | 12132m | 4.6m/s | 0°C | 0% | 0hPa | 0V | 00:00:00 | 00:00:00 | 00:00:00 | |
| 9A1FER-3 | 2026-09-02 00:12:18 | 46.09239 | 14.98582 | 90° | 93km/h | 12123m | 5.3m/s | 0°C | 0% | 0hPa | 0V | 00:00:00 | 00:00:00 | 00:00:00 | |
| 9A1FER-10 | 2026-09-02 00:12:05 | 46.09212 | 14.98141 | 86° | 95km/h | 12067m | 5.5m/s | 0°C | 0% | 0hPa | 0V | 00:00:00 | 00:00:00 | 00:00:00 | |
| 9A1FER-3 | 2026-09-02 00:12:03 | 46.09208 | 14.98073 | 85° | 95km/h | 12058m | 5.0m/s | 0°C | 0% | 0hPa | 0V | 00:00:00 | 00:00:00 | 00:00:00 | |
| 9A1FER-10 | 2026-09-02 00:11:50 | 46.09175 | 14.97631 | 83° | 93km/h | 12002m | 4.2m/s | 0°C | 0% | 0hPa | 0V | 00:00:00 | 00:00:00 | 00:00:00 | |
| 9A1FER-3 | 2026-09-02 00:11:48 | 46.09170 | 14.97562 | 86° | 93km/h | 11994m | 4.2m/s | 0°C | 0% | 0hPa | 0V | 00:00:00 | 00:00:00 | 00:00:00 | |
| 9A1FER-10 | 2026-09-02 00:11:35 | 46.09142 | 14.97125 | 85° | 89km/h | 11941m | 3.5m/s | 0°C | 0% | 0hPa | 0V | 00:00:00 | 00:00:00 | 00:00:00 | |
| 9A1FER-3 | 2026-09-02 00:11:33 | 46.09138 | 14.97060 | 85° | 91km/h | 11932m | 3.8m/s | 0°C | 0% | 0hPa | 0V | 00:00:00 | 00:00:00 | 00:00:00 | |
| 9A1FER-10 | 2026-09-02 00:11:20 | 46.09110 | 14.96636 | 82° | 89km/h | 11879m | 4.7m/s | 0°C | 0% | 0hPa | 0V | 00:00:00 | 00:00:00 | 00:00:00 | |
| 9A1FER-3 | 2026-09-02 00:11:18 | 46.09104 | 14.96569 | 84° | 89km/h | 11871m | 3.8m/s | 0°C | 0% | 0hPa | 0V | 00:00:00 | 00:00:00 | 00:00:00 | |
| 9A1FER-10 | 2026-09-02 00:11:04 | 46.09074 | 14.96114 | 88° | 91km/h | 11806m | 5.6m/s | 0°C | 0% | 0hPa | 0V | 00:00:00 | 00:00:00 | 00:00:00 | |
| 9A1FER-3 | 2026-09-02 00:11:03 | 46.09073 | 14.96082 | 89° | 91km/h | 11802m | 2.7m/s | 0°C | 0% | 0hPa | 0V | 00:00:00 | 00:00:00 | 00:00:00 | |
| 9A1FER-10 | 2026-09-02 00:10:49 | 46.09052 | 14.95620 | 88° | 91km/h | 11741m | 3.3m/s | 0°C | 0% | 0hPa | 0V | 00:00:00 | 00:00:00 | 00:00:00 | |
| 9A1FER-3 | 2026-09-02 00:10:48 | 46.09051 | 14.95585 | 89° | 91km/h | 11737m | 4.5m/s | 0°C | 0% | 0hPa | 0V | 00:00:00 | 00:00:00 | 00:00:00 | |
| 9A1FER-10 | 2026-09-02 00:10:34 | 46.09035 | 14.95121 | 87° | 91km/h | 11675m | 5.3m/s | 0°C | 0% | 0hPa | 0V | 00:00:00 | 00:00:00 | 00:00:00 | |
| 9A1FER-3 | 2026-09-02 00:10:33 | 46.09034 | 14.95087 | 90° | 91km/h | 11670m | 2.9m/s | 0°C | 0% | 0hPa | 0V | 00:00:00 | 00:00:00 | 00:00:00 | |
| 9A1FER-10 | 2026-09-02 00:10:19 | 46.09039 | 14.94624 | 96° | 89km/h | 11607m | 2.9m/s | 0°C | 0% | 0hPa | 0V | 00:00:00 | 00:00:00 | 00:00:00 | |
| 9A1FER-3 | 2026-09-02 00:10:18 | 46.09042 | 14.94592 | 99° | 89km/h | 11601m | 8.0m/s | 0°C | 0% | 0hPa | 0V | 00:00:00 | 00:00:00 | 00:00:00 | |
| 9A1FER-10 | 2026-09-02 00:10:04 | 46.09039 | 14.94135 | 96° | 91km/h | 11528m | 5.9m/s | 0°C | 0% | 0hPa | 0V | 00:00:00 | 00:00:00 | 00:00:00 | |
| 9A1FER-3 | 2026-09-02 00:10:03 | 46.09041 | 14.94102 | 95° | 91km/h | 11522m | 5.2m/s | 0°C | 0% | 0hPa | 0V | 00:00:00 | 00:00:00 | 00:00:00 | |
| 9A1FER-3 | 2026-09-02 00:09:49 | 46.09036 | 14.93601 | 91° | 91km/h | 11449m | 3.8m/s | 0°C | 0% | 0hPa | 0V | 00:00:00 | 00:00:00 | 00:00:00 | |
| 9A1FER-10 | 2026-09-02 00:09:34 | 46.09024 | 14.93149 | 87° | 89km/h | 11386m | 3.3m/s | 0°C | 0% | 0hPa | 0V | 00:00:00 | 00:00:00 | 00:00:00 | |
| 9A1FER-3 | 2026-09-02 00:09:29 | 46.09018 | 14.92948 | 88° | 88km/h | 11360m | 4.6m/s | 0°C | 0% | 0hPa | 0V | 00:00:00 | 00:00:00 | 00:00:00 | |
| 9A1FER-10 | 2026-09-02 00:09:19 | 46.09006 | 14.92658 | 82° | 88km/h | 11320m | 4.0m/s | 0°C | 0% | 0hPa | 0V | 00:00:00 | 00:00:00 | 00:00:00 | |
| 9A1FER-3 | 2026-09-02 00:09:13 | 46.08993 | 14.92468 | 86° | 89km/h | 11296m | 3.6m/s | 0°C | 0% | 0hPa | 0V | 00:00:00 | 00:00:00 | 00:00:00 | |
| 9A1FER-10 | 2026-09-02 00:09:04 | 46.08978 | 14.92179 | 85° | 89km/h | 11257m | 4.2m/s | 0°C | 0% | 0hPa | 0V | 00:00:00 | 00:00:00 | 00:00:00 | |
| 9A1FER-3 | 2026-09-02 00:08:58 | 46.08967 | 14.91985 | 89° | 91km/h | 11232m | 4.9m/s | 0°C | 0% | 0hPa | 0V | 00:00:00 | 00:00:00 | 00:00:00 | |
| 9A1FER-10 | 2026-09-02 00:08:49 | 46.08955 | 14.91695 | 88° | 91km/h | 11193m | 4.8m/s | 0°C | 0% | 0hPa | 0V | 00:00:00 | 00:00:00 | 00:00:00 | |
| 9A1FER-3 | 2026-09-02 00:08:43 | 46.08946 | 14.91494 | 86° | 89km/h | 11169m | 3.5m/s | 0°C | 0% | 0hPa | 0V | 00:00:00 | 00:00:00 | 00:00:00 | |
| 9A1FER-10 | 2026-09-02 00:08:34 | 46.08928 | 14.91202 | 88° | 88km/h | 11129m | 3.2m/s | 0°C | 0% | 0hPa | 0V | 00:00:00 | 00:00:00 | 00:00:00 | |
| 9A1FER-3 | 2026-09-02 00:08:28 | 46.08915 | 14.91012 | 83° | 88km/h | 11105m | 4.1m/s | 0°C | 0% | 0hPa | 0V | 00:00:00 | 00:00:00 | 00:00:00 | |
| 9A1FER-10 | 2026-09-02 00:08:16 | 46.08880 | 14.90636 | 85° | 88km/h | 11057m | 3.0m/s | 0°C | 0% | 0hPa | 0V | 00:00:00 | 00:00:00 | 00:00:00 | |
| 9A1FER-3 | 2026-09-02 00:08:13 | 46.08873 | 14.90542 | 85° | 88km/h | 11044m | 4.3m/s | 0°C | 0% | 0hPa | 0V | 00:00:00 | 00:00:00 | 00:00:00 | |
| 9A1FER-10 | 2026-09-02 00:08:01 | 46.08845 | 14.90157 | 84° | 89km/h | 10994m | 5.4m/s | 0°C | 0% | 0hPa | 0V | 00:00:00 | 00:00:00 | 00:00:00 | |
| 9A1FER-3 | 2026-09-02 00:07:57 | 46.08835 | 14.90031 | 86° | 89km/h | 10976m | 3.4m/s | 0°C | 0% | 0hPa | 0V | 00:00:00 | 00:00:00 | 00:00:00 | |
| 9A1FER-10 | 2026-09-02 00:07:46 | 46.08804 | 14.89675 | 85° | 88km/h | 10930m | 5.5m/s | 0°C | 0% | 0hPa | 0V | 00:00:00 | 00:00:00 | 00:00:00 | |
| 9A1FER-3 | 2026-09-02 00:07:42 | 46.08793 | 14.89548 | 83° | 89km/h | 10913m | 4.4m/s | 0°C | 0% | 0hPa | 0V | 00:00:00 | 00:00:00 | 00:00:00 | |
| 9A1FER-3 | 2026-09-02 00:07:27 | 46.08749 | 14.89064 | 80° | 91km/h | 10852m | 3.9m/s | 0°C | 0% | 0hPa | 0V | 00:00:00 | 00:00:00 | 00:00:00 | |
| 9A1FER-10 | 2026-09-02 00:07:22 | 46.08732 | 14.88900 | 82° | 91km/h | 10830m | 4.3m/s | 0°C | 0% | 0hPa | 0V | 00:00:00 | 00:00:00 | 00:00:00 | |
| 9A1FER-3 | 2026-09-02 00:07:12 | 46.08700 | 14.88574 | 85° | 89km/h | 10791m | 2.7m/s | 0°C | 0% | 0hPa | 0V | 00:00:00 | 00:00:00 | 00:00:00 | |
| 9A1FER-10 | 2026-09-02 00:07:07 | 46.08686 | 14.88412 | 81° | 89km/h | 10771m | 4.5m/s | 0°C | 0% | 0hPa | 0V | 00:00:00 | 00:00:00 | 00:00:00 | |
| 9A1FER-3 | 2026-09-02 00:06:57 | 46.08654 | 14.88089 | 83° | 89km/h | 10731m | 4.2m/s | 0°C | 0% | 0hPa | 0V | 00:00:00 | 00:00:00 | 00:00:00 | |
| 9A1FER-10 | 2026-09-02 00:06:50 | 46.08633 | 14.87864 | 80° | 88km/h | 10701m | 5.0m/s | 0°C | 0% | 0hPa | 0V | 00:00:00 | 00:00:00 | 00:00:00 | |
| 9A1FER-3 | 2026-09-02 00:06:42 | 46.08608 | 14.87606 | 84° | 88km/h | 10667m | 3.5m/s | 0°C | 0% | 0hPa | 0V | 00:00:00 | 00:00:00 | 00:00:00 | |
| 9A1FER-10 | 2026-09-02 00:06:34 | 46.08582 | 14.87351 | 84° | 86km/h | 10632m | 4.7m/s | 0°C | 0% | 0hPa | 0V | 00:00:00 | 00:00:00 | 00:00:00 | |
| 9A1FER-3 | 2026-09-02 00:06:27 | 46.08559 | 14.87134 | 81° | 86km/h | 10605m | 3.7m/s | 0°C | 0% | 0hPa | 0V | 00:00:00 | 00:00:00 | 00:00:00 | |
| 9A1FER-10 | 2026-09-02 00:06:19 | 46.08538 | 14.86891 | 87° | 86km/h | 10571m | 2.7m/s | 0°C | 0% | 0hPa | 0V | 00:00:00 | 00:00:00 | 00:00:00 | |
| 9A1FER-10 | 2026-09-02 00:06:04 | 46.08499 | 14.86431 | 83° | 86km/h | 10507m | 4.7m/s | 0°C | 0% | 0hPa | 0V | 00:00:00 | 00:00:00 | 00:00:00 | |
| 9A1FER-3 | 2026-09-02 00:05:53 | 46.08461 | 14.86093 | 84° | 88km/h | 10456m | 4.4m/s | 0°C | 0% | 0hPa | 0V | 00:00:00 | 00:00:00 | 00:00:00 | |
| 9A1FER-10 | 2026-09-02 00:05:49 | 46.08449 | 14.85968 | 82° | 86km/h | 10439m | 3.2m/s | 0°C | 0% | 0hPa | 0V | 00:00:00 | 00:00:00 | 00:00:00 | |
| 9A1FER-3 | 2026-09-02 00:05:38 | 46.08416 | 14.85624 | 84° | 84km/h | 10389m | 6.0m/s | 0°C | 0% | 0hPa | 0V | 00:00:00 | 00:00:00 | 00:00:00 | |
| 9A1FER-10 | 2026-09-02 00:05:34 | 46.08408 | 14.85502 | 82° | 84km/h | 10371m | 4.0m/s | 0°C | 0% | 0hPa | 0V | 00:00:00 | 00:00:00 | 00:00:00 | |
| 9A1FER-3 | 2026-09-02 00:05:23 | 46.08375 | 14.85171 | 84° | 82km/h | 10320m | 4.3m/s | 0°C | 0% | 0hPa | 0V | 00:00:00 | 00:00:00 | 00:00:00 | |
| 9A1FER-10 | 2026-09-02 00:05:09 | 46.08340 | 14.84758 | 83° | 80km/h | 10261m | 4.2m/s | 0°C | 0% | 0hPa | 0V | 00:00:00 | 00:00:00 | 00:00:00 | |
| 9A1FER-3 | 2026-09-02 00:05:08 | 46.08338 | 14.84728 | 84° | 80km/h | 10257m | 3.7m/s | 0°C | 0% | 0hPa | 0V | 00:00:00 | 00:00:00 | 00:00:00 | |
| 9A1FER-10 | 2026-09-02 00:04:53 | 46.08301 | 14.84290 | 83° | 84km/h | 10187m | 5.7m/s | 0°C | 0% | 0hPa | 0V | 00:00:00 | 00:00:00 | 00:00:00 | |
| 9A1FER-10 | 2026-09-02 00:04:39 | 46.08261 | 14.83840 | 81° | 82km/h | 10121m | 3.8m/s | 0°C | 0% | 0hPa | 0V | 00:00:00 | 00:00:00 | 00:00:00 | |
| 9A1FER-3 | 2026-09-02 00:04:35 | 46.08251 | 14.83751 | 80° | 82km/h | 10108m | 4.5m/s | 0°C | 0% | 0hPa | 0V | 00:00:00 | 00:00:00 | 00:00:00 | |
| 9A1FER-10 | 2026-09-02 00:04:23 | 46.08215 | 14.83399 | 79° | 84km/h | 10051m | 3.4m/s | 0°C | 0% | 0hPa | 0V | 00:00:00 | 00:00:00 | 00:00:00 | |
| 9A1FER-3 | 2026-09-02 00:04:20 | 46.08204 | 14.83310 | 78° | 84km/h | 10037m | 5.7m/s | 0°C | 0% | 0hPa | 0V | 00:00:00 | 00:00:00 | 00:00:00 | |
| 9A1FER-10 | 2026-09-02 00:04:08 | 46.08154 | 14.82918 | 79° | 82km/h | 9975m | 5.7m/s | 0°C | 0% | 0hPa | 0V | 00:00:00 | 00:00:00 | 00:00:00 | |
| 9A1FER-3 | 2026-09-02 00:04:06 | 46.08146 | 14.82858 | 79° | 80km/h | 9966m | 6.0m/s | 0°C | 0% | 0hPa | 0V | 00:00:00 | 00:00:00 | 00:00:00 | |
| 9A1FER-10 | 2026-09-02 00:03:56 | 46.08103 | 14.82474 | 82° | 80km/h | 9904m | 5.9m/s | 0°C | 0% | 0hPa | 0V | 00:00:00 | 00:00:00 | 00:00:00 | |
| 9A1FER-10 | 2026-09-02 00:03:38 | 46.08053 | 14.82015 | 81° | 80km/h | 9829m | 4.4m/s | 0°C | 0% | 0hPa | 0V | 00:00:00 | 00:00:00 | 00:00:00 | |
| 9A1FER-3 | 2026-09-02 00:03:32 | 46.08042 | 14.81902 | 83° | 82km/h | 9811m | 6.3m/s | 0°C | 0% | 0hPa | 0V | 00:00:00 | 00:00:00 | 00:00:00 | |
| 9A1FER-3 | 2026-09-02 00:03:22 | 46.07994 | 14.81467 | 81° | 80km/h | 9744m | 3.9m/s | 0°C | 0% | 0hPa | 0V | 00:00:00 | 00:00:00 | 00:00:00 | |
| 9A1FER-3 | 2026-09-02 00:03:17 | 46.07946 | 14.81035 | 83° | 78km/h | 9676m | 4.6m/s | 0°C | 0% | 0hPa | 0V | 00:00:00 | 00:00:00 | 00:00:00 | |
| 9A1FER-10 | 2026-09-02 00:03:10 | 46.07927 | 14.80865 | 81° | 73km/h | 9648m | 3.4m/s | 0°C | 0% | 0hPa | 0V | 00:00:00 | 00:00:00 | 00:00:00 | |
| 9A1FER-3 | 2026-09-02 00:02:59 | 46.07898 | 14.80608 | 83° | 77km/h | 9610m | 5.1m/s | 0°C | 0% | 0hPa | 0V | 00:00:00 | 00:00:00 | 00:00:00 | |
| 9A1FER-3 | 2026-09-02 00:01:59 | 46.07760 | 14.79099 | 85° | 73km/h | 9390m | 4.6m/s | 0°C | 0% | 0hPa | 0V | 00:00:00 | 00:00:00 | 00:00:00 | |
| 9A1FER-3 | 2026-09-02 00:01:45 | 46.07726 | 14.78698 | 86° | 77km/h | 9331m | 4.4m/s | 0°C | 0% | 0hPa | 0V | 00:00:00 | 00:00:00 | 00:00:00 | |
| 9A1FER-3 | 2026-09-02 00:01:27 | 46.07704 | 14.78285 | 89° | 75km/h | 9274m | 4.3m/s | 0°C | 0% | 0hPa | 0V | 00:00:00 | 00:00:00 | 00:00:00 | |
| 9A1FER-3 | 2026-09-02 00:01:09 | 46.07687 | 14.77842 | 88° | 69km/h | 9213m | 4.7m/s | 0°C | 0% | 0hPa | 0V | 00:00:00 | 00:00:00 | 00:00:00 | |
| 9A1FER-3 | 2026-09-02 00:00:24 | 46.07658 | 14.76607 | 92° | 64km/h | 9015m | 5.0m/s | 0°C | 0% | 0hPa | 0V | 00:00:00 | 00:00:00 | 00:00:00 | |
| 9A1FER-3 | 2026-09-02 00:00:03 | 46.07648 | 14.76262 | 85° | 58km/h | 8954m | 2.6m/s | 0°C | 0% | 0hPa | 0V | 00:00:00 | 00:00:00 | 00:00:00 | |
| 9A1FER-3 | 2026-09-01 23:59:47 | 46.07627 | 14.75931 | 86° | 57km/h | 8887m | 3.5m/s | 0°C | 0% | 0hPa | 0V | 00:00:00 | 00:00:00 | 00:00:00 | |
| 9A1FER-3 | 2026-09-01 23:59:32 | 46.07607 | 14.75628 | 83° | 57km/h | 8825m | 3.2m/s | 0°C | 0% | 0hPa | 0V | 00:00:00 | 00:00:00 | 00:00:00 | |
| 9A1FER-3 | 2026-09-01 23:59:17 | 46.07580 | 14.75320 | 84° | 60km/h | 8769m | 4.5m/s | 0°C | 0% | 0hPa | 0V | 00:00:00 | 00:00:00 | 00:00:00 | |
| 9A1FER-3 | 2026-09-01 23:59:02 | 46.07543 | 14.75000 | 75° | 58km/h | 8705m | 3.6m/s | 0°C | 0% | 0hPa | 0V | 00:00:00 | 00:00:00 | 00:00:00 | |
| 9A1FER-3 | 2026-09-01 23:58:47 | 46.07516 | 14.74687 | 83° | 55km/h | 8644m | 4.4m/s | 0°C | 0% | 0hPa | 0V | 00:00:00 | 00:00:00 | 00:00:00 | |
| 9A1FER-3 | 2026-09-01 23:57:36 | 46.07501 | 14.73358 | 96° | 49km/h | 8318m | 4.1m/s | 0°C | 0% | 0hPa | 0V | 00:00:00 | 00:00:00 | 00:00:00 | |
| OE3JTB-15 | 2026-09-01 23:57:22 | 46.07514 | 14.73121 | 100° | 53km/h | 8254m | 4.0m/s | 0°C | 0% | 0hPa | 0V | 00:00:00 | 00:00:00 | 00:00:00 | |
| 9A1FER-3 | 2026-09-01 23:57:20 | 46.07516 | 14.73090 | 92° | 46km/h | 8244m | 6.1m/s | 0°C | 0% | 0hPa | 0V | 00:00:00 | 00:00:00 | 00:00:00 | |
| 9A1FER-3 | 2026-09-01 23:57:05 | 46.07527 | 14.72836 | 96° | 51km/h | 8172m | 5.3m/s | 0°C | 0% | 0hPa | 0V | 00:00:00 | 00:00:00 | 00:00:00 | |
| 9A1FER-3 | 2026-09-01 23:56:50 | 46.07542 | 14.72568 | 103° | 47km/h | 8097m | 5.2m/s | 0°C | 0% | 0hPa | 0V | 00:00:00 | 00:00:00 | 00:00:00 | |
| 9A1FER-3 | 2026-09-01 23:56:35 | 46.07549 | 14.72303 | 94° | 53km/h | 8020m | 3.7m/s | 0°C | 0% | 0hPa | 0V | 00:00:00 | 00:00:00 | 00:00:00 | |
| 9A1FER-3 | 2026-09-01 23:56:20 | 46.07559 | 14.72011 | 90° | 58km/h | 7946m | 7.0m/s | 0°C | 0% | 0hPa | 0V | 00:00:00 | 00:00:00 | 00:00:00 | |
| 9A1FER-3 | 2026-09-01 23:56:05 | 46.07568 | 14.71697 | 91° | 57km/h | 7879m | 2.9m/s | 0°C | 0% | 0hPa | 0V | 00:00:00 | 00:00:00 | 00:00:00 | |
| 9A1FER-3 | 2026-09-01 23:55:50 | 46.07580 | 14.71384 | 102° | 66km/h | 7820m | 3.3m/s | 0°C | 0% | 0hPa | 0V | 00:00:00 | 00:00:00 | 00:00:00 | |
| OE3JTB-15 | 2026-09-01 23:55:49 | 46.07582 | 14.71365 | 99° | 62km/h | 7815m | 4.2m/s | 0°C | 0% | 0hPa | 0V | 00:00:00 | 00:00:00 | 00:00:00 | |
| 9A1FER-3 | 2026-09-01 23:55:35 | 46.07599 | 14.71029 | 100° | 62km/h | 7746m | 4.7m/s | 0°C | 0% | 0hPa | 0V | 00:00:00 | 00:00:00 | 00:00:00 | |
| 9A1FER-3 | 2026-09-01 23:55:20 | 46.07619 | 14.70691 | 96° | 68km/h | 7674m | 2.9m/s | 0°C | 0% | 0hPa | 0V | 00:00:00 | 00:00:00 | 00:00:00 | |
| OE3JTB-15 | 2026-09-01 23:55:18 | 46.07624 | 14.70644 | 100° | 68km/h | 7666m | 4.0m/s | 0°C | 0% | 0hPa | 0V | 00:00:00 | 00:00:00 | 00:00:00 | |
| 9A1FER-3 | 2026-09-01 23:55:05 | 46.07642 | 14.70331 | 97° | 69km/h | 7609m | 3.5m/s | 0°C | 0% | 0hPa | 0V | 00:00:00 | 00:00:00 | 00:00:00 | |
| 9A1FER-3 | 2026-09-01 23:54:50 | 46.07665 | 14.69951 | 92° | 68km/h | 7538m | 4.0m/s | 0°C | 0% | 0hPa | 0V | 00:00:00 | 00:00:00 | 00:00:00 | |
| 9A1FER-10 | 2026-09-01 23:54:43 | 46.07675 | 14.69783 | 93° | 69km/h | 7505m | 3.6m/s | 0°C | 0% | 0hPa | 0V | 00:00:00 | 00:00:00 | 00:00:00 | |
| 9A1FER-3 | 2026-09-01 23:54:35 | 46.07688 | 14.69586 | 95° | 68km/h | 7474m | 5.1m/s | 0°C | 0% | 0hPa | 0V | 00:00:00 | 00:00:00 | 00:00:00 | |
| 9A1FER-10 | 2026-09-01 23:54:29 | 46.07694 | 14.69411 | 96° | 69km/h | 7445m | 3.8m/s | 0°C | 0% | 0hPa | 0V | 00:00:00 | 00:00:00 | 00:00:00 | |
| OE3JTB-15 | 2026-09-01 23:54:27 | 46.07696 | 14.69387 | 100° | 68km/h | 7441m | 4.7m/s | 0°C | 0% | 0hPa | 0V | 00:00:00 | 00:00:00 | 00:00:00 | |
| 9A1FER-3 | 2026-09-01 23:54:19 | 46.07709 | 14.69188 | 96° | 73km/h | 7410m | 3.6m/s | 0°C | 0% | 0hPa | 0V | 00:00:00 | 00:00:00 | 00:00:00 | |
| 9A1FER-10 | 2026-09-01 23:54:13 | 46.07707 | 14.69034 | 83° | 68km/h | 7387m | 2.5m/s | 0°C | 0% | 0hPa | 0V | 00:00:00 | 00:00:00 | 00:00:00 | |
| 9A1FER-10 | 2026-09-01 23:53:58 | 46.07734 | 14.68667 | 99° | 71km/h | 7323m | 4.0m/s | 0°C | 0% | 0hPa | 0V | 00:00:00 | 00:00:00 | 00:00:00 | |
| OE3JTB-15 | 2026-09-01 23:53:56 | 46.07737 | 14.68615 | 95° | 71km/h | 7315m | 4.5m/s | 0°C | 0% | 0hPa | 0V | 00:00:00 | 00:00:00 | 00:00:00 | |
| 9A1FER-10 | 2026-09-01 23:53:43 | 46.07752 | 14.68283 | 95° | 69km/h | 7251m | 3.4m/s | 0°C | 0% | 0hPa | 0V | 00:00:00 | 00:00:00 | 00:00:00 | |
| 9A1FER-10 | 2026-09-01 23:53:28 | 46.07757 | 14.67903 | 95° | 73km/h | 7184m | 5.4m/s | 0°C | 0% | 0hPa | 0V | 00:00:00 | 00:00:00 | 00:00:00 | |
| OE3JTB-15 | 2026-09-01 23:53:27 | 46.07758 | 14.67875 | 97° | 71km/h | 7180m | 2.6m/s | 0°C | 0% | 0hPa | 0V | 00:00:00 | 00:00:00 | 00:00:00 | |
| 9A1FER-10 | 2026-09-01 23:52:56 | 46.07769 | 14.67099 | 93° | 71km/h | 7035m | 4.6m/s | 0°C | 0% | 0hPa | 0V | 00:00:00 | 00:00:00 | 00:00:00 | |
| 9A1FER-3 | 2026-09-01 23:52:34 | 46.07777 | 14.66532 | 97° | 71km/h | 6926m | 5.2m/s | 0°C | 0% | 0hPa | 0V | 00:00:00 | 00:00:00 | 00:00:00 | |
| 9A1FER-3 | 2026-09-01 23:52:17 | 46.07791 | 14.66094 | 95° | 66km/h | 6849m | 3.8m/s | 0°C | 0% | 0hPa | 0V | 00:00:00 | 00:00:00 | 00:00:00 |